<?xml version="1.0" encoding="UTF-8" standalone="no" ?>
<gpx xmlns="http://www.topografix.com/GPX/1/1" xmlns:xsi="http://www.w3.org/2001/XMLSchema-instance" xsi:schemaLocation="http://www.topografix.com/GPX/1/1 http://www.topografix.com/GPX/1/1/gpx.xsd" version="1.1" creator="VisuGPX - https://www.visugpx.com">
  <metadata>
    <name>Vernoscoise 2022 Grand parcourt</name>
  </metadata>
  <trk>
    <name><![CDATA[14394858-Vernoscoise 2022 Grand parcourt]]></name>
    <trkseg>
      <trkpt lat="45.22451" lon="4.71861">
        <ele>393</ele>
        <time>2022-04-09T10:25:59Z</time>
      </trkpt>
      <trkpt lat="45.22454" lon="4.71838">
        <ele>394</ele>
        <time>2022-04-09T10:26:03Z</time>
      </trkpt>
      <trkpt lat="45.22476" lon="4.71808">
        <ele>393</ele>
        <time>2022-04-09T10:26:10Z</time>
      </trkpt>
      <trkpt lat="45.22422" lon="4.71781">
        <ele>394</ele>
        <time>2022-04-09T10:26:23Z</time>
      </trkpt>
      <trkpt lat="45.22369" lon="4.71734">
        <ele>395</ele>
        <time>2022-04-09T10:26:38Z</time>
      </trkpt>
      <trkpt lat="45.22279" lon="4.71684">
        <ele>400</ele>
        <time>2022-04-09T10:27:01Z</time>
      </trkpt>
      <trkpt lat="45.22229" lon="4.7167">
        <ele>402</ele>
        <time>2022-04-09T10:27:12Z</time>
      </trkpt>
      <trkpt lat="45.22208" lon="4.71668">
        <ele>401</ele>
        <time>2022-04-09T10:27:17Z</time>
      </trkpt>
      <trkpt lat="45.2217" lon="4.7166">
        <ele>400</ele>
        <time>2022-04-09T10:27:26Z</time>
      </trkpt>
      <trkpt lat="45.22129" lon="4.71644">
        <ele>399</ele>
        <time>2022-04-09T10:27:36Z</time>
      </trkpt>
      <trkpt lat="45.22058" lon="4.71602">
        <ele>399</ele>
        <time>2022-04-09T10:27:54Z</time>
      </trkpt>
      <trkpt lat="45.22031" lon="4.71583">
        <ele>399</ele>
        <time>2022-04-09T10:28:01Z</time>
      </trkpt>
      <trkpt lat="45.22006" lon="4.71556">
        <ele>399</ele>
        <time>2022-04-09T10:28:09Z</time>
      </trkpt>
      <trkpt lat="45.21947" lon="4.71521">
        <ele>398</ele>
        <time>2022-04-09T10:28:23Z</time>
      </trkpt>
      <trkpt lat="45.21932" lon="4.71509">
        <ele>398</ele>
        <time>2022-04-09T10:28:28Z</time>
      </trkpt>
      <trkpt lat="45.21921" lon="4.71492">
        <ele>398</ele>
        <time>2022-04-09T10:28:31Z</time>
      </trkpt>
      <trkpt lat="45.21918" lon="4.71452">
        <ele>398</ele>
        <time>2022-04-09T10:28:38Z</time>
      </trkpt>
      <trkpt lat="45.21923" lon="4.71367">
        <ele>398</ele>
        <time>2022-04-09T10:28:52Z</time>
      </trkpt>
      <trkpt lat="45.21926" lon="4.71346">
        <ele>398</ele>
        <time>2022-04-09T10:28:55Z</time>
      </trkpt>
      <trkpt lat="45.21933" lon="4.71326">
        <ele>399</ele>
        <time>2022-04-09T10:28:59Z</time>
      </trkpt>
      <trkpt lat="45.21949" lon="4.71293">
        <ele>400</ele>
        <time>2022-04-09T10:29:06Z</time>
      </trkpt>
      <trkpt lat="45.21967" lon="4.71266">
        <ele>402</ele>
        <time>2022-04-09T10:29:12Z</time>
      </trkpt>
      <trkpt lat="45.22027" lon="4.71219">
        <ele>403</ele>
        <time>2022-04-09T10:29:28Z</time>
      </trkpt>
      <trkpt lat="45.22044" lon="4.71192">
        <ele>402</ele>
        <time>2022-04-09T10:29:34Z</time>
      </trkpt>
      <trkpt lat="45.22061" lon="4.71174">
        <ele>402</ele>
        <time>2022-04-09T10:29:39Z</time>
      </trkpt>
      <trkpt lat="45.22067" lon="4.7116">
        <ele>402</ele>
        <time>2022-04-09T10:29:41Z</time>
      </trkpt>
      <trkpt lat="45.22058" lon="4.7115">
        <ele>401</ele>
        <time>2022-04-09T10:29:44Z</time>
      </trkpt>
      <trkpt lat="45.21986" lon="4.71126">
        <ele>396</ele>
        <time>2022-04-09T10:30:01Z</time>
      </trkpt>
      <trkpt lat="45.21951" lon="4.71077">
        <ele>392</ele>
        <time>2022-04-09T10:30:13Z</time>
      </trkpt>
      <trkpt lat="45.21942" lon="4.71048">
        <ele>391</ele>
        <time>2022-04-09T10:30:18Z</time>
      </trkpt>
      <trkpt lat="45.21937" lon="4.70932">
        <ele>387</ele>
        <time>2022-04-09T10:30:37Z</time>
      </trkpt>
      <trkpt lat="45.21931" lon="4.70909">
        <ele>387</ele>
        <time>2022-04-09T10:30:41Z</time>
      </trkpt>
      <trkpt lat="45.21914" lon="4.70908">
        <ele>388</ele>
        <time>2022-04-09T10:30:45Z</time>
      </trkpt>
      <trkpt lat="45.21888" lon="4.70929">
        <ele>389</ele>
        <time>2022-04-09T10:30:52Z</time>
      </trkpt>
      <trkpt lat="45.21843" lon="4.70959">
        <ele>391</ele>
        <time>2022-04-09T10:31:04Z</time>
      </trkpt>
      <trkpt lat="45.2178" lon="4.71013">
        <ele>391</ele>
        <time>2022-04-09T10:31:21Z</time>
      </trkpt>
      <trkpt lat="45.21757" lon="4.70959">
        <ele>391</ele>
        <time>2022-04-09T10:31:31Z</time>
      </trkpt>
      <trkpt lat="45.21739" lon="4.70908">
        <ele>390</ele>
        <time>2022-04-09T10:31:41Z</time>
      </trkpt>
      <trkpt lat="45.21723" lon="4.70898">
        <ele>391</ele>
        <time>2022-04-09T10:31:45Z</time>
      </trkpt>
      <trkpt lat="45.21671" lon="4.70905">
        <ele>391</ele>
        <time>2022-04-09T10:31:57Z</time>
      </trkpt>
      <trkpt lat="45.21674" lon="4.70858">
        <ele>392</ele>
        <time>2022-04-09T10:32:05Z</time>
      </trkpt>
      <trkpt lat="45.2167" lon="4.70774">
        <ele>393</ele>
        <time>2022-04-09T10:32:19Z</time>
      </trkpt>
      <trkpt lat="45.21681" lon="4.70757">
        <ele>393</ele>
        <time>2022-04-09T10:32:22Z</time>
      </trkpt>
      <trkpt lat="45.2171" lon="4.70759">
        <ele>393</ele>
        <time>2022-04-09T10:32:29Z</time>
      </trkpt>
      <trkpt lat="45.21741" lon="4.70746">
        <ele>394</ele>
        <time>2022-04-09T10:32:37Z</time>
      </trkpt>
      <trkpt lat="45.2175" lon="4.70711">
        <ele>394</ele>
        <time>2022-04-09T10:32:43Z</time>
      </trkpt>
      <trkpt lat="45.21766" lon="4.70676">
        <ele>394</ele>
        <time>2022-04-09T10:32:50Z</time>
      </trkpt>
      <trkpt lat="45.21768" lon="4.70652">
        <ele>394</ele>
        <time>2022-04-09T10:32:54Z</time>
      </trkpt>
      <trkpt lat="45.21767" lon="4.70575">
        <ele>394</ele>
        <time>2022-04-09T10:33:06Z</time>
      </trkpt>
      <trkpt lat="45.21761" lon="4.7051">
        <ele>396</ele>
        <time>2022-04-09T10:33:17Z</time>
      </trkpt>
      <trkpt lat="45.21759" lon="4.70447">
        <ele>396</ele>
        <time>2022-04-09T10:33:28Z</time>
      </trkpt>
      <trkpt lat="45.21752" lon="4.70426">
        <ele>397</ele>
        <time>2022-04-09T10:33:31Z</time>
      </trkpt>
      <trkpt lat="45.21739" lon="4.70368">
        <ele>391</ele>
        <time>2022-04-09T10:33:41Z</time>
      </trkpt>
      <trkpt lat="45.21724" lon="4.70336">
        <ele>388</ele>
        <time>2022-04-09T10:33:48Z</time>
      </trkpt>
      <trkpt lat="45.21709" lon="4.70317">
        <ele>385</ele>
        <time>2022-04-09T10:33:52Z</time>
      </trkpt>
      <trkpt lat="45.21682" lon="4.70296">
        <ele>383</ele>
        <time>2022-04-09T10:34:00Z</time>
      </trkpt>
      <trkpt lat="45.21647" lon="4.70244">
        <ele>375</ele>
        <time>2022-04-09T10:34:11Z</time>
      </trkpt>
      <trkpt lat="45.21634" lon="4.70243">
        <ele>373</ele>
        <time>2022-04-09T10:34:15Z</time>
      </trkpt>
      <trkpt lat="45.21612" lon="4.70248">
        <ele>372</ele>
        <time>2022-04-09T10:34:20Z</time>
      </trkpt>
      <trkpt lat="45.21588" lon="4.70286">
        <ele>376</ele>
        <time>2022-04-09T10:34:28Z</time>
      </trkpt>
      <trkpt lat="45.21577" lon="4.70292">
        <ele>375</ele>
        <time>2022-04-09T10:34:31Z</time>
      </trkpt>
      <trkpt lat="45.2157" lon="4.70309">
        <ele>376</ele>
        <time>2022-04-09T10:34:34Z</time>
      </trkpt>
      <trkpt lat="45.21564" lon="4.70314">
        <ele>376</ele>
        <time>2022-04-09T10:34:36Z</time>
      </trkpt>
      <trkpt lat="45.21552" lon="4.70341">
        <ele>378</ele>
        <time>2022-04-09T10:34:41Z</time>
      </trkpt>
      <trkpt lat="45.21539" lon="4.70354">
        <ele>377</ele>
        <time>2022-04-09T10:34:45Z</time>
      </trkpt>
      <trkpt lat="45.21536" lon="4.70393">
        <ele>381</ele>
        <time>2022-04-09T10:34:51Z</time>
      </trkpt>
      <trkpt lat="45.21537" lon="4.70423">
        <ele>384</ele>
        <time>2022-04-09T10:34:56Z</time>
      </trkpt>
      <trkpt lat="45.21546" lon="4.70452">
        <ele>386</ele>
        <time>2022-04-09T10:35:01Z</time>
      </trkpt>
      <trkpt lat="45.2156" lon="4.70528">
        <ele>390</ele>
        <time>2022-04-09T10:35:14Z</time>
      </trkpt>
      <trkpt lat="45.21564" lon="4.70539">
        <ele>390</ele>
        <time>2022-04-09T10:35:16Z</time>
      </trkpt>
      <trkpt lat="45.21578" lon="4.70557">
        <ele>391</ele>
        <time>2022-04-09T10:35:21Z</time>
      </trkpt>
      <trkpt lat="45.21551" lon="4.70537">
        <ele>388</ele>
        <time>2022-04-09T10:35:28Z</time>
      </trkpt>
      <trkpt lat="45.21521" lon="4.70506">
        <ele>384</ele>
        <time>2022-04-09T10:35:36Z</time>
      </trkpt>
      <trkpt lat="45.21489" lon="4.70491">
        <ele>379</ele>
        <time>2022-04-09T10:35:44Z</time>
      </trkpt>
      <trkpt lat="45.21474" lon="4.70479">
        <ele>376</ele>
        <time>2022-04-09T10:35:48Z</time>
      </trkpt>
      <trkpt lat="45.21463" lon="4.70455">
        <ele>374</ele>
        <time>2022-04-09T10:35:53Z</time>
      </trkpt>
      <trkpt lat="45.21457" lon="4.70424">
        <ele>373</ele>
        <time>2022-04-09T10:35:58Z</time>
      </trkpt>
      <trkpt lat="45.21422" lon="4.7039">
        <ele>365</ele>
        <time>2022-04-09T10:36:08Z</time>
      </trkpt>
      <trkpt lat="45.21413" lon="4.70371">
        <ele>361</ele>
        <time>2022-04-09T10:36:12Z</time>
      </trkpt>
      <trkpt lat="45.21404" lon="4.70321">
        <ele>353</ele>
        <time>2022-04-09T10:36:20Z</time>
      </trkpt>
      <trkpt lat="45.21398" lon="4.70304">
        <ele>348</ele>
        <time>2022-04-09T10:36:24Z</time>
      </trkpt>
      <trkpt lat="45.21389" lon="4.70298">
        <ele>346</ele>
        <time>2022-04-09T10:36:26Z</time>
      </trkpt>
      <trkpt lat="45.2137" lon="4.70301">
        <ele>347</ele>
        <time>2022-04-09T10:36:30Z</time>
      </trkpt>
      <trkpt lat="45.21355" lon="4.70311">
        <ele>349</ele>
        <time>2022-04-09T10:36:34Z</time>
      </trkpt>
      <trkpt lat="45.2135" lon="4.70324">
        <ele>352</ele>
        <time>2022-04-09T10:36:37Z</time>
      </trkpt>
      <trkpt lat="45.21327" lon="4.70347">
        <ele>351</ele>
        <time>2022-04-09T10:36:43Z</time>
      </trkpt>
      <trkpt lat="45.21323" lon="4.70376">
        <ele>351</ele>
        <time>2022-04-09T10:36:48Z</time>
      </trkpt>
      <trkpt lat="45.21323" lon="4.70425">
        <ele>352</ele>
        <time>2022-04-09T10:36:56Z</time>
      </trkpt>
      <trkpt lat="45.21317" lon="4.70435">
        <ele>351</ele>
        <time>2022-04-09T10:36:58Z</time>
      </trkpt>
      <trkpt lat="45.21278" lon="4.70438">
        <ele>342</ele>
        <time>2022-04-09T10:37:07Z</time>
      </trkpt>
      <trkpt lat="45.21263" lon="4.70447">
        <ele>339</ele>
        <time>2022-04-09T10:37:11Z</time>
      </trkpt>
      <trkpt lat="45.21255" lon="4.70482">
        <ele>341</ele>
        <time>2022-04-09T10:37:17Z</time>
      </trkpt>
      <trkpt lat="45.21255" lon="4.70502">
        <ele>343</ele>
        <time>2022-04-09T10:37:21Z</time>
      </trkpt>
      <trkpt lat="45.21261" lon="4.70532">
        <ele>345</ele>
        <time>2022-04-09T10:37:26Z</time>
      </trkpt>
      <trkpt lat="45.21251" lon="4.70523">
        <ele>343</ele>
        <time>2022-04-09T10:37:29Z</time>
      </trkpt>
      <trkpt lat="45.21241" lon="4.70509">
        <ele>339</ele>
        <time>2022-04-09T10:37:32Z</time>
      </trkpt>
      <trkpt lat="45.21237" lon="4.70486">
        <ele>335</ele>
        <time>2022-04-09T10:37:36Z</time>
      </trkpt>
      <trkpt lat="45.21228" lon="4.70491">
        <ele>333</ele>
        <time>2022-04-09T10:37:38Z</time>
      </trkpt>
      <trkpt lat="45.21221" lon="4.70508">
        <ele>332</ele>
        <time>2022-04-09T10:37:41Z</time>
      </trkpt>
      <trkpt lat="45.21217" lon="4.70457">
        <ele>323</ele>
        <time>2022-04-09T10:37:50Z</time>
      </trkpt>
      <trkpt lat="45.21207" lon="4.70467">
        <ele>320</ele>
        <time>2022-04-09T10:37:53Z</time>
      </trkpt>
      <trkpt lat="45.21194" lon="4.70471">
        <ele>316</ele>
        <time>2022-04-09T10:37:56Z</time>
      </trkpt>
      <trkpt lat="45.21201" lon="4.70414">
        <ele>308</ele>
        <time>2022-04-09T10:38:05Z</time>
      </trkpt>
      <trkpt lat="45.21212" lon="4.70372">
        <ele>305</ele>
        <time>2022-04-09T10:38:13Z</time>
      </trkpt>
      <trkpt lat="45.21202" lon="4.70368">
        <ele>299</ele>
        <time>2022-04-09T10:38:15Z</time>
      </trkpt>
      <trkpt lat="45.2119" lon="4.70388">
        <ele>297</ele>
        <time>2022-04-09T10:38:19Z</time>
      </trkpt>
      <trkpt lat="45.21173" lon="4.70406">
        <ele>292</ele>
        <time>2022-04-09T10:38:24Z</time>
      </trkpt>
      <trkpt lat="45.21164" lon="4.70425">
        <ele>293</ele>
        <time>2022-04-09T10:38:28Z</time>
      </trkpt>
      <trkpt lat="45.21151" lon="4.70443">
        <ele>291</ele>
        <time>2022-04-09T10:38:32Z</time>
      </trkpt>
      <trkpt lat="45.21134" lon="4.70457">
        <ele>287</ele>
        <time>2022-04-09T10:38:37Z</time>
      </trkpt>
      <trkpt lat="45.21119" lon="4.70457">
        <ele>281</ele>
        <time>2022-04-09T10:38:40Z</time>
      </trkpt>
      <trkpt lat="45.21072" lon="4.70503">
        <ele>275</ele>
        <time>2022-04-09T10:38:54Z</time>
      </trkpt>
      <trkpt lat="45.21052" lon="4.7053">
        <ele>274</ele>
        <time>2022-04-09T10:39:00Z</time>
      </trkpt>
      <trkpt lat="45.21038" lon="4.70528">
        <ele>268</ele>
        <time>2022-04-09T10:39:03Z</time>
      </trkpt>
      <trkpt lat="45.21043" lon="4.70516">
        <ele>268</ele>
        <time>2022-04-09T10:39:06Z</time>
      </trkpt>
      <trkpt lat="45.21069" lon="4.70477">
        <ele>267</ele>
        <time>2022-04-09T10:39:14Z</time>
      </trkpt>
      <trkpt lat="45.21081" lon="4.70437">
        <ele>260</ele>
        <time>2022-04-09T10:39:22Z</time>
      </trkpt>
      <trkpt lat="45.21082" lon="4.70405">
        <ele>253</ele>
        <time>2022-04-09T10:39:27Z</time>
      </trkpt>
      <trkpt lat="45.21076" lon="4.70411">
        <ele>253</ele>
        <time>2022-04-09T10:39:29Z</time>
      </trkpt>
      <trkpt lat="45.21072" lon="4.70424">
        <ele>255</ele>
        <time>2022-04-09T10:39:31Z</time>
      </trkpt>
      <trkpt lat="45.21069" lon="4.70415">
        <ele>253</ele>
        <time>2022-04-09T10:39:33Z</time>
      </trkpt>
      <trkpt lat="45.21099" lon="4.70349">
        <ele>251</ele>
        <time>2022-04-09T10:39:46Z</time>
      </trkpt>
      <trkpt lat="45.2109" lon="4.70331">
        <ele>246</ele>
        <time>2022-04-09T10:39:49Z</time>
      </trkpt>
      <trkpt lat="45.21073" lon="4.7031">
        <ele>249</ele>
        <time>2022-04-09T10:39:54Z</time>
      </trkpt>
      <trkpt lat="45.21061" lon="4.70297">
        <ele>254</ele>
        <time>2022-04-09T10:39:58Z</time>
      </trkpt>
      <trkpt lat="45.21052" lon="4.70292">
        <ele>257</ele>
        <time>2022-04-09T10:40:00Z</time>
      </trkpt>
      <trkpt lat="45.21048" lon="4.70297">
        <ele>257</ele>
        <time>2022-04-09T10:40:01Z</time>
      </trkpt>
      <trkpt lat="45.21044" lon="4.70326">
        <ele>254</ele>
        <time>2022-04-09T10:40:06Z</time>
      </trkpt>
      <trkpt lat="45.21039" lon="4.70335">
        <ele>254</ele>
        <time>2022-04-09T10:40:08Z</time>
      </trkpt>
      <trkpt lat="45.2103" lon="4.70344">
        <ele>255</ele>
        <time>2022-04-09T10:40:11Z</time>
      </trkpt>
      <trkpt lat="45.21021" lon="4.70371">
        <ele>254</ele>
        <time>2022-04-09T10:40:16Z</time>
      </trkpt>
      <trkpt lat="45.21003" lon="4.70412">
        <ele>248</ele>
        <time>2022-04-09T10:40:24Z</time>
      </trkpt>
      <trkpt lat="45.2099" lon="4.70415">
        <ele>250</ele>
        <time>2022-04-09T10:40:27Z</time>
      </trkpt>
      <trkpt lat="45.20962" lon="4.7041">
        <ele>258</ele>
        <time>2022-04-09T10:40:33Z</time>
      </trkpt>
      <trkpt lat="45.20962" lon="4.70403">
        <ele>259</ele>
        <time>2022-04-09T10:40:34Z</time>
      </trkpt>
      <trkpt lat="45.20972" lon="4.70397">
        <ele>258</ele>
        <time>2022-04-09T10:40:37Z</time>
      </trkpt>
      <trkpt lat="45.2098" lon="4.70386">
        <ele>258</ele>
        <time>2022-04-09T10:40:40Z</time>
      </trkpt>
      <trkpt lat="45.20989" lon="4.70356">
        <ele>262</ele>
        <time>2022-04-09T10:40:45Z</time>
      </trkpt>
      <trkpt lat="45.20996" lon="4.70309">
        <ele>269</ele>
        <time>2022-04-09T10:40:53Z</time>
      </trkpt>
      <trkpt lat="45.20993" lon="4.70266">
        <ele>279</ele>
        <time>2022-04-09T10:41:00Z</time>
      </trkpt>
      <trkpt lat="45.20989" lon="4.70248">
        <ele>284</ele>
        <time>2022-04-09T10:41:03Z</time>
      </trkpt>
      <trkpt lat="45.20985" lon="4.70245">
        <ele>285</ele>
        <time>2022-04-09T10:41:04Z</time>
      </trkpt>
      <trkpt lat="45.20986" lon="4.70239">
        <ele>286</ele>
        <time>2022-04-09T10:41:05Z</time>
      </trkpt>
      <trkpt lat="45.20982" lon="4.70231">
        <ele>289</ele>
        <time>2022-04-09T10:41:07Z</time>
      </trkpt>
      <trkpt lat="45.20973" lon="4.70226">
        <ele>291</ele>
        <time>2022-04-09T10:41:09Z</time>
      </trkpt>
      <trkpt lat="45.20979" lon="4.70238">
        <ele>288</ele>
        <time>2022-04-09T10:41:11Z</time>
      </trkpt>
      <trkpt lat="45.20975" lon="4.70256">
        <ele>285</ele>
        <time>2022-04-09T10:41:15Z</time>
      </trkpt>
      <trkpt lat="45.20977" lon="4.70266">
        <ele>283</ele>
        <time>2022-04-09T10:41:16Z</time>
      </trkpt>
      <trkpt lat="45.20972" lon="4.70278">
        <ele>281</ele>
        <time>2022-04-09T10:41:19Z</time>
      </trkpt>
      <trkpt lat="45.20959" lon="4.70298">
        <ele>281</ele>
        <time>2022-04-09T10:41:23Z</time>
      </trkpt>
      <trkpt lat="45.20951" lon="4.70301">
        <ele>282</ele>
        <time>2022-04-09T10:41:25Z</time>
      </trkpt>
      <trkpt lat="45.20938" lon="4.70299">
        <ele>286</ele>
        <time>2022-04-09T10:41:28Z</time>
      </trkpt>
      <trkpt lat="45.2092" lon="4.70292">
        <ele>292</ele>
        <time>2022-04-09T10:41:32Z</time>
      </trkpt>
      <trkpt lat="45.20909" lon="4.70294">
        <ele>294</ele>
        <time>2022-04-09T10:41:35Z</time>
      </trkpt>
      <trkpt lat="45.20887" lon="4.7031">
        <ele>299</ele>
        <time>2022-04-09T10:41:41Z</time>
      </trkpt>
      <trkpt lat="45.20874" lon="4.70325">
        <ele>301</ele>
        <time>2022-04-09T10:41:45Z</time>
      </trkpt>
      <trkpt lat="45.20859" lon="4.70336">
        <ele>304</ele>
        <time>2022-04-09T10:41:49Z</time>
      </trkpt>
      <trkpt lat="45.20846" lon="4.70367">
        <ele>303</ele>
        <time>2022-04-09T10:41:55Z</time>
      </trkpt>
      <trkpt lat="45.2084" lon="4.70371">
        <ele>304</ele>
        <time>2022-04-09T10:41:56Z</time>
      </trkpt>
      <trkpt lat="45.20834" lon="4.70348">
        <ele>310</ele>
        <time>2022-04-09T10:42:00Z</time>
      </trkpt>
      <trkpt lat="45.20834" lon="4.70327">
        <ele>312</ele>
        <time>2022-04-09T10:42:04Z</time>
      </trkpt>
      <trkpt lat="45.20845" lon="4.70297">
        <ele>312</ele>
        <time>2022-04-09T10:42:09Z</time>
      </trkpt>
      <trkpt lat="45.2085" lon="4.70276">
        <ele>313</ele>
        <time>2022-04-09T10:42:13Z</time>
      </trkpt>
      <trkpt lat="45.2085" lon="4.70253">
        <ele>315</ele>
        <time>2022-04-09T10:42:17Z</time>
      </trkpt>
      <trkpt lat="45.20843" lon="4.70228">
        <ele>319</ele>
        <time>2022-04-09T10:42:21Z</time>
      </trkpt>
      <trkpt lat="45.20836" lon="4.70213">
        <ele>322</ele>
        <time>2022-04-09T10:42:24Z</time>
      </trkpt>
      <trkpt lat="45.20832" lon="4.70186">
        <ele>324</ele>
        <time>2022-04-09T10:42:28Z</time>
      </trkpt>
      <trkpt lat="45.20818" lon="4.70139">
        <ele>327</ele>
        <time>2022-04-09T10:42:37Z</time>
      </trkpt>
      <trkpt lat="45.20806" lon="4.70127">
        <ele>328</ele>
        <time>2022-04-09T10:42:40Z</time>
      </trkpt>
      <trkpt lat="45.20794" lon="4.70121">
        <ele>330</ele>
        <time>2022-04-09T10:42:43Z</time>
      </trkpt>
      <trkpt lat="45.20764" lon="4.7012">
        <ele>334</ele>
        <time>2022-04-09T10:42:50Z</time>
      </trkpt>
      <trkpt lat="45.2073" lon="4.70107">
        <ele>339</ele>
        <time>2022-04-09T10:42:58Z</time>
      </trkpt>
      <trkpt lat="45.20715" lon="4.70095">
        <ele>342</ele>
        <time>2022-04-09T10:43:03Z</time>
      </trkpt>
      <trkpt lat="45.20692" lon="4.70071">
        <ele>345</ele>
        <time>2022-04-09T10:43:09Z</time>
      </trkpt>
      <trkpt lat="45.20689" lon="4.70081">
        <ele>346</ele>
        <time>2022-04-09T10:43:11Z</time>
      </trkpt>
      <trkpt lat="45.20687" lon="4.7011">
        <ele>346</ele>
        <time>2022-04-09T10:43:16Z</time>
      </trkpt>
      <trkpt lat="45.20684" lon="4.70118">
        <ele>346</ele>
        <time>2022-04-09T10:43:17Z</time>
      </trkpt>
      <trkpt lat="45.20678" lon="4.70119">
        <ele>347</ele>
        <time>2022-04-09T10:43:19Z</time>
      </trkpt>
      <trkpt lat="45.20664" lon="4.70092">
        <ele>349</ele>
        <time>2022-04-09T10:43:24Z</time>
      </trkpt>
      <trkpt lat="45.20653" lon="4.70082">
        <ele>351</ele>
        <time>2022-04-09T10:43:27Z</time>
      </trkpt>
      <trkpt lat="45.20625" lon="4.70045">
        <ele>356</ele>
        <time>2022-04-09T10:43:36Z</time>
      </trkpt>
      <trkpt lat="45.20608" lon="4.70008">
        <ele>359</ele>
        <time>2022-04-09T10:43:43Z</time>
      </trkpt>
      <trkpt lat="45.20613" lon="4.69996">
        <ele>358</ele>
        <time>2022-04-09T10:43:46Z</time>
      </trkpt>
      <trkpt lat="45.20613" lon="4.69998">
        <ele>358</ele>
        <time>2022-04-09T10:43:46Z</time>
      </trkpt>
      <trkpt lat="45.20608" lon="4.70002">
        <ele>359</ele>
        <time>2022-04-09T10:43:47Z</time>
      </trkpt>
      <trkpt lat="45.20609" lon="4.69964">
        <ele>358</ele>
        <time>2022-04-09T10:43:54Z</time>
      </trkpt>
      <trkpt lat="45.2063" lon="4.69883">
        <ele>356</ele>
        <time>2022-04-09T10:44:08Z</time>
      </trkpt>
      <trkpt lat="45.20653" lon="4.69769">
        <ele>360</ele>
        <time>2022-04-09T10:44:27Z</time>
      </trkpt>
      <trkpt lat="45.20669" lon="4.69711">
        <ele>361</ele>
        <time>2022-04-09T10:44:38Z</time>
      </trkpt>
      <trkpt lat="45.20679" lon="4.69631">
        <ele>364</ele>
        <time>2022-04-09T10:44:51Z</time>
      </trkpt>
      <trkpt lat="45.20662" lon="4.69557">
        <ele>368</ele>
        <time>2022-04-09T10:45:04Z</time>
      </trkpt>
      <trkpt lat="45.20643" lon="4.69326">
        <ele>369</ele>
        <time>2022-04-09T10:45:42Z</time>
      </trkpt>
      <trkpt lat="45.20636" lon="4.69299">
        <ele>368</ele>
        <time>2022-04-09T10:45:47Z</time>
      </trkpt>
      <trkpt lat="45.20625" lon="4.6928">
        <ele>368</ele>
        <time>2022-04-09T10:45:51Z</time>
      </trkpt>
      <trkpt lat="45.206" lon="4.69247">
        <ele>368</ele>
        <time>2022-04-09T10:45:59Z</time>
      </trkpt>
      <trkpt lat="45.20591" lon="4.69227">
        <ele>368</ele>
        <time>2022-04-09T10:46:03Z</time>
      </trkpt>
      <trkpt lat="45.20591" lon="4.692">
        <ele>367</ele>
        <time>2022-04-09T10:46:07Z</time>
      </trkpt>
      <trkpt lat="45.20608" lon="4.69129">
        <ele>366</ele>
        <time>2022-04-09T10:46:19Z</time>
      </trkpt>
      <trkpt lat="45.20608" lon="4.69108">
        <ele>367</ele>
        <time>2022-04-09T10:46:23Z</time>
      </trkpt>
      <trkpt lat="45.20601" lon="4.69091">
        <ele>368</ele>
        <time>2022-04-09T10:46:26Z</time>
      </trkpt>
      <trkpt lat="45.2059" lon="4.69082">
        <ele>369</ele>
        <time>2022-04-09T10:46:29Z</time>
      </trkpt>
      <trkpt lat="45.20582" lon="4.69071">
        <ele>370</ele>
        <time>2022-04-09T10:46:32Z</time>
      </trkpt>
      <trkpt lat="45.20569" lon="4.69045">
        <ele>372</ele>
        <time>2022-04-09T10:46:37Z</time>
      </trkpt>
      <trkpt lat="45.20559" lon="4.69017">
        <ele>374</ele>
        <time>2022-04-09T10:46:42Z</time>
      </trkpt>
      <trkpt lat="45.20556" lon="4.6897">
        <ele>377</ele>
        <time>2022-04-09T10:46:50Z</time>
      </trkpt>
      <trkpt lat="45.20557" lon="4.6892">
        <ele>379</ele>
        <time>2022-04-09T10:46:58Z</time>
      </trkpt>
      <trkpt lat="45.20555" lon="4.68908">
        <ele>380</ele>
        <time>2022-04-09T10:47:00Z</time>
      </trkpt>
      <trkpt lat="45.20557" lon="4.6888">
        <ele>380</ele>
        <time>2022-04-09T10:47:05Z</time>
      </trkpt>
      <trkpt lat="45.20542" lon="4.68803">
        <ele>383</ele>
        <time>2022-04-09T10:47:18Z</time>
      </trkpt>
      <trkpt lat="45.2053" lon="4.68796">
        <ele>384</ele>
        <time>2022-04-09T10:47:21Z</time>
      </trkpt>
      <trkpt lat="45.20519" lon="4.68796">
        <ele>385</ele>
        <time>2022-04-09T10:47:24Z</time>
      </trkpt>
      <trkpt lat="45.20512" lon="4.68803">
        <ele>386</ele>
        <time>2022-04-09T10:47:26Z</time>
      </trkpt>
      <trkpt lat="45.2051" lon="4.68815">
        <ele>386</ele>
        <time>2022-04-09T10:47:28Z</time>
      </trkpt>
      <trkpt lat="45.20505" lon="4.68825">
        <ele>386</ele>
        <time>2022-04-09T10:47:30Z</time>
      </trkpt>
      <trkpt lat="45.20487" lon="4.68827">
        <ele>387</ele>
        <time>2022-04-09T10:47:34Z</time>
      </trkpt>
      <trkpt lat="45.2046" lon="4.68841">
        <ele>388</ele>
        <time>2022-04-09T10:47:41Z</time>
      </trkpt>
      <trkpt lat="45.20419" lon="4.68884">
        <ele>386</ele>
        <time>2022-04-09T10:47:52Z</time>
      </trkpt>
      <trkpt lat="45.20386" lon="4.68904">
        <ele>386</ele>
        <time>2022-04-09T10:48:01Z</time>
      </trkpt>
      <trkpt lat="45.20341" lon="4.68938">
        <ele>388</ele>
        <time>2022-04-09T10:48:13Z</time>
      </trkpt>
      <trkpt lat="45.20292" lon="4.68986">
        <ele>389</ele>
        <time>2022-04-09T10:48:27Z</time>
      </trkpt>
      <trkpt lat="45.20272" lon="4.69009">
        <ele>389</ele>
        <time>2022-04-09T10:48:33Z</time>
      </trkpt>
      <trkpt lat="45.20262" lon="4.69012">
        <ele>390</ele>
        <time>2022-04-09T10:48:35Z</time>
      </trkpt>
      <trkpt lat="45.2023" lon="4.69015">
        <ele>392</ele>
        <time>2022-04-09T10:48:43Z</time>
      </trkpt>
      <trkpt lat="45.20205" lon="4.69022">
        <ele>393</ele>
        <time>2022-04-09T10:48:48Z</time>
      </trkpt>
      <trkpt lat="45.20196" lon="4.69018">
        <ele>394</ele>
        <time>2022-04-09T10:48:51Z</time>
      </trkpt>
      <trkpt lat="45.20188" lon="4.69011">
        <ele>395</ele>
        <time>2022-04-09T10:48:53Z</time>
      </trkpt>
      <trkpt lat="45.20186" lon="4.69001">
        <ele>396</ele>
        <time>2022-04-09T10:48:55Z</time>
      </trkpt>
      <trkpt lat="45.20085" lon="4.68911">
        <ele>401</ele>
        <time>2022-04-09T10:49:22Z</time>
      </trkpt>
      <trkpt lat="45.20089" lon="4.68898">
        <ele>402</ele>
        <time>2022-04-09T10:49:25Z</time>
      </trkpt>
      <trkpt lat="45.20105" lon="4.68887">
        <ele>403</ele>
        <time>2022-04-09T10:49:29Z</time>
      </trkpt>
      <trkpt lat="45.20113" lon="4.68886">
        <ele>403</ele>
        <time>2022-04-09T10:49:31Z</time>
      </trkpt>
      <trkpt lat="45.20157" lon="4.68843">
        <ele>405</ele>
        <time>2022-04-09T10:49:43Z</time>
      </trkpt>
      <trkpt lat="45.20166" lon="4.68831">
        <ele>406</ele>
        <time>2022-04-09T10:49:46Z</time>
      </trkpt>
      <trkpt lat="45.20167" lon="4.6882">
        <ele>407</ele>
        <time>2022-04-09T10:49:48Z</time>
      </trkpt>
      <trkpt lat="45.20135" lon="4.68745">
        <ele>410</ele>
        <time>2022-04-09T10:50:02Z</time>
      </trkpt>
      <trkpt lat="45.2012" lon="4.6872">
        <ele>411</ele>
        <time>2022-04-09T10:50:08Z</time>
      </trkpt>
      <trkpt lat="45.20102" lon="4.68706">
        <ele>412</ele>
        <time>2022-04-09T10:50:13Z</time>
      </trkpt>
      <trkpt lat="45.20086" lon="4.68698">
        <ele>412</ele>
        <time>2022-04-09T10:50:17Z</time>
      </trkpt>
      <trkpt lat="45.20034" lon="4.6868">
        <ele>409</ele>
        <time>2022-04-09T10:50:29Z</time>
      </trkpt>
      <trkpt lat="45.20025" lon="4.68667">
        <ele>409</ele>
        <time>2022-04-09T10:50:32Z</time>
      </trkpt>
      <trkpt lat="45.20023" lon="4.68651">
        <ele>409</ele>
        <time>2022-04-09T10:50:35Z</time>
      </trkpt>
      <trkpt lat="45.20034" lon="4.68596">
        <ele>412</ele>
        <time>2022-04-09T10:50:44Z</time>
      </trkpt>
      <trkpt lat="45.20048" lon="4.6856">
        <ele>413</ele>
        <time>2022-04-09T10:50:51Z</time>
      </trkpt>
      <trkpt lat="45.2006" lon="4.68499">
        <ele>414</ele>
        <time>2022-04-09T10:51:01Z</time>
      </trkpt>
      <trkpt lat="45.20093" lon="4.68398">
        <ele>412</ele>
        <time>2022-04-09T10:51:20Z</time>
      </trkpt>
      <trkpt lat="45.20106" lon="4.68383">
        <ele>410</ele>
        <time>2022-04-09T10:51:24Z</time>
      </trkpt>
      <trkpt lat="45.20117" lon="4.68365">
        <ele>409</ele>
        <time>2022-04-09T10:51:27Z</time>
      </trkpt>
      <trkpt lat="45.20124" lon="4.68326">
        <ele>408</ele>
        <time>2022-04-09T10:51:34Z</time>
      </trkpt>
      <trkpt lat="45.20125" lon="4.68299">
        <ele>408</ele>
        <time>2022-04-09T10:51:39Z</time>
      </trkpt>
      <trkpt lat="45.20082" lon="4.68121">
        <ele>406</ele>
        <time>2022-04-09T10:52:10Z</time>
      </trkpt>
      <trkpt lat="45.20075" lon="4.68064">
        <ele>404</ele>
        <time>2022-04-09T10:52:19Z</time>
      </trkpt>
      <trkpt lat="45.20069" lon="4.68046">
        <ele>404</ele>
        <time>2022-04-09T10:52:22Z</time>
      </trkpt>
      <trkpt lat="45.20068" lon="4.68026">
        <ele>404</ele>
        <time>2022-04-09T10:52:26Z</time>
      </trkpt>
      <trkpt lat="45.20059" lon="4.67998">
        <ele>405</ele>
        <time>2022-04-09T10:52:31Z</time>
      </trkpt>
      <trkpt lat="45.20023" lon="4.6781">
        <ele>412</ele>
        <time>2022-04-09T10:53:03Z</time>
      </trkpt>
      <trkpt lat="45.20011" lon="4.67768">
        <ele>412</ele>
        <time>2022-04-09T10:53:10Z</time>
      </trkpt>
      <trkpt lat="45.19998" lon="4.67689">
        <ele>414</ele>
        <time>2022-04-09T10:53:24Z</time>
      </trkpt>
      <trkpt lat="45.19981" lon="4.67625">
        <ele>413</ele>
        <time>2022-04-09T10:53:35Z</time>
      </trkpt>
      <trkpt lat="45.19978" lon="4.67583">
        <ele>412</ele>
        <time>2022-04-09T10:53:42Z</time>
      </trkpt>
      <trkpt lat="45.19965" lon="4.67531">
        <ele>411</ele>
        <time>2022-04-09T10:53:51Z</time>
      </trkpt>
      <trkpt lat="45.19951" lon="4.67501">
        <ele>411</ele>
        <time>2022-04-09T10:53:57Z</time>
      </trkpt>
      <trkpt lat="45.19935" lon="4.67477">
        <ele>411</ele>
        <time>2022-04-09T10:54:02Z</time>
      </trkpt>
      <trkpt lat="45.19894" lon="4.67424">
        <ele>407</ele>
        <time>2022-04-09T10:54:15Z</time>
      </trkpt>
      <trkpt lat="45.19853" lon="4.67378">
        <ele>404</ele>
        <time>2022-04-09T10:54:27Z</time>
      </trkpt>
      <trkpt lat="45.19633" lon="4.67094">
        <ele>408</ele>
        <time>2022-04-09T10:55:37Z</time>
      </trkpt>
      <trkpt lat="45.19632" lon="4.67088">
        <ele>408</ele>
        <time>2022-04-09T10:55:38Z</time>
      </trkpt>
      <trkpt lat="45.19571" lon="4.67089">
        <ele>409</ele>
        <time>2022-04-09T10:55:52Z</time>
      </trkpt>
      <trkpt lat="45.19441" lon="4.67081">
        <ele>413</ele>
        <time>2022-04-09T10:56:22Z</time>
      </trkpt>
      <trkpt lat="45.19284" lon="4.6708">
        <ele>422</ele>
        <time>2022-04-09T10:56:59Z</time>
      </trkpt>
      <trkpt lat="45.19249" lon="4.67077">
        <ele>423</ele>
        <time>2022-04-09T10:57:07Z</time>
      </trkpt>
      <trkpt lat="45.19198" lon="4.67052">
        <ele>426</ele>
        <time>2022-04-09T10:57:20Z</time>
      </trkpt>
      <trkpt lat="45.19164" lon="4.67016">
        <ele>429</ele>
        <time>2022-04-09T10:57:30Z</time>
      </trkpt>
      <trkpt lat="45.19023" lon="4.67022">
        <ele>428</ele>
        <time>2022-04-09T10:58:03Z</time>
      </trkpt>
      <trkpt lat="45.18963" lon="4.67005">
        <ele>427</ele>
        <time>2022-04-09T10:58:17Z</time>
      </trkpt>
      <trkpt lat="45.18656" lon="4.6694">
        <ele>423</ele>
        <time>2022-04-09T10:59:30Z</time>
      </trkpt>
      <trkpt lat="45.18554" lon="4.66914">
        <ele>420</ele>
        <time>2022-04-09T10:59:54Z</time>
      </trkpt>
      <trkpt lat="45.18489" lon="4.66908">
        <ele>420</ele>
        <time>2022-04-09T11:00:09Z</time>
      </trkpt>
      <trkpt lat="45.18452" lon="4.66925">
        <ele>421</ele>
        <time>2022-04-09T11:00:18Z</time>
      </trkpt>
      <trkpt lat="45.18278" lon="4.66901">
        <ele>427</ele>
        <time>2022-04-09T11:00:59Z</time>
      </trkpt>
      <trkpt lat="45.18238" lon="4.6692">
        <ele>429</ele>
        <time>2022-04-09T11:01:09Z</time>
      </trkpt>
      <trkpt lat="45.182" lon="4.66819">
        <ele>437</ele>
        <time>2022-04-09T11:01:28Z</time>
      </trkpt>
      <trkpt lat="45.18123" lon="4.66747">
        <ele>445</ele>
        <time>2022-04-09T11:01:49Z</time>
      </trkpt>
      <trkpt lat="45.18112" lon="4.66723">
        <ele>448</ele>
        <time>2022-04-09T11:01:54Z</time>
      </trkpt>
      <trkpt lat="45.18221" lon="4.66631">
        <ele>447</ele>
        <time>2022-04-09T11:02:23Z</time>
      </trkpt>
      <trkpt lat="45.18332" lon="4.6665">
        <ele>442</ele>
        <time>2022-04-09T11:02:50Z</time>
      </trkpt>
      <trkpt lat="45.18427" lon="4.66642">
        <ele>435</ele>
        <time>2022-04-09T11:03:12Z</time>
      </trkpt>
      <trkpt lat="45.18463" lon="4.66613">
        <ele>434</ele>
        <time>2022-04-09T11:03:21Z</time>
      </trkpt>
      <trkpt lat="45.18474" lon="4.66568">
        <ele>435</ele>
        <time>2022-04-09T11:03:29Z</time>
      </trkpt>
      <trkpt lat="45.18521" lon="4.66527">
        <ele>437</ele>
        <time>2022-04-09T11:03:42Z</time>
      </trkpt>
      <trkpt lat="45.18528" lon="4.66507">
        <ele>439</ele>
        <time>2022-04-09T11:03:46Z</time>
      </trkpt>
      <trkpt lat="45.18551" lon="4.66482">
        <ele>442</ele>
        <time>2022-04-09T11:03:53Z</time>
      </trkpt>
      <trkpt lat="45.18552" lon="4.66437">
        <ele>446</ele>
        <time>2022-04-09T11:04:00Z</time>
      </trkpt>
      <trkpt lat="45.18528" lon="4.66357">
        <ele>452</ele>
        <time>2022-04-09T11:04:14Z</time>
      </trkpt>
      <trkpt lat="45.18531" lon="4.66224">
        <ele>462</ele>
        <time>2022-04-09T11:04:36Z</time>
      </trkpt>
      <trkpt lat="45.1857" lon="4.66244">
        <ele>464</ele>
        <time>2022-04-09T11:04:46Z</time>
      </trkpt>
      <trkpt lat="45.18596" lon="4.66254">
        <ele>464</ele>
        <time>2022-04-09T11:04:52Z</time>
      </trkpt>
      <trkpt lat="45.18651" lon="4.66307">
        <ele>463</ele>
        <time>2022-04-09T11:05:08Z</time>
      </trkpt>
      <trkpt lat="45.18689" lon="4.66323">
        <ele>462</ele>
        <time>2022-04-09T11:05:17Z</time>
      </trkpt>
      <trkpt lat="45.18713" lon="4.66313">
        <ele>461</ele>
        <time>2022-04-09T11:05:23Z</time>
      </trkpt>
      <trkpt lat="45.18776" lon="4.6628">
        <ele>458</ele>
        <time>2022-04-09T11:05:38Z</time>
      </trkpt>
      <trkpt lat="45.18765" lon="4.6625">
        <ele>460</ele>
        <time>2022-04-09T11:05:44Z</time>
      </trkpt>
      <trkpt lat="45.18757" lon="4.66196">
        <ele>462</ele>
        <time>2022-04-09T11:05:53Z</time>
      </trkpt>
      <trkpt lat="45.18749" lon="4.66164">
        <ele>464</ele>
        <time>2022-04-09T11:05:59Z</time>
      </trkpt>
      <trkpt lat="45.18689" lon="4.66007">
        <ele>466</ele>
        <time>2022-04-09T11:06:28Z</time>
      </trkpt>
      <trkpt lat="45.18676" lon="4.66006">
        <ele>467</ele>
        <time>2022-04-09T11:06:31Z</time>
      </trkpt>
      <trkpt lat="45.1867" lon="4.66001">
        <ele>467</ele>
        <time>2022-04-09T11:06:33Z</time>
      </trkpt>
      <trkpt lat="45.18646" lon="4.6599">
        <ele>467</ele>
        <time>2022-04-09T11:06:39Z</time>
      </trkpt>
      <trkpt lat="45.18514" lon="4.65974">
        <ele>470</ele>
        <time>2022-04-09T11:07:10Z</time>
      </trkpt>
      <trkpt lat="45.18345" lon="4.6595">
        <ele>480</ele>
        <time>2022-04-09T11:07:49Z</time>
      </trkpt>
      <trkpt lat="45.18338" lon="4.65947">
        <ele>480</ele>
        <time>2022-04-09T11:07:51Z</time>
      </trkpt>
      <trkpt lat="45.18337" lon="4.6594">
        <ele>481</ele>
        <time>2022-04-09T11:07:52Z</time>
      </trkpt>
      <trkpt lat="45.18404" lon="4.65826">
        <ele>481</ele>
        <time>2022-04-09T11:08:17Z</time>
      </trkpt>
      <trkpt lat="45.18423" lon="4.65775">
        <ele>480</ele>
        <time>2022-04-09T11:08:26Z</time>
      </trkpt>
      <trkpt lat="45.18436" lon="4.65717">
        <ele>478</ele>
        <time>2022-04-09T11:08:36Z</time>
      </trkpt>
      <trkpt lat="45.18446" lon="4.65652">
        <ele>475</ele>
        <time>2022-04-09T11:08:47Z</time>
      </trkpt>
      <trkpt lat="45.18451" lon="4.65584">
        <ele>473</ele>
        <time>2022-04-09T11:08:58Z</time>
      </trkpt>
      <trkpt lat="45.18447" lon="4.65553">
        <ele>471</ele>
        <time>2022-04-09T11:09:04Z</time>
      </trkpt>
      <trkpt lat="45.18438" lon="4.65528">
        <ele>471</ele>
        <time>2022-04-09T11:09:08Z</time>
      </trkpt>
      <trkpt lat="45.18394" lon="4.65473">
        <ele>473</ele>
        <time>2022-04-09T11:09:22Z</time>
      </trkpt>
      <trkpt lat="45.18364" lon="4.65455">
        <ele>475</ele>
        <time>2022-04-09T11:09:29Z</time>
      </trkpt>
      <trkpt lat="45.18355" lon="4.65441">
        <ele>475</ele>
        <time>2022-04-09T11:09:33Z</time>
      </trkpt>
      <trkpt lat="45.18352" lon="4.65422">
        <ele>474</ele>
        <time>2022-04-09T11:09:36Z</time>
      </trkpt>
      <trkpt lat="45.18352" lon="4.65374">
        <ele>474</ele>
        <time>2022-04-09T11:09:44Z</time>
      </trkpt>
      <trkpt lat="45.18349" lon="4.65357">
        <ele>474</ele>
        <time>2022-04-09T11:09:47Z</time>
      </trkpt>
      <trkpt lat="45.1834" lon="4.65333">
        <ele>475</ele>
        <time>2022-04-09T11:09:51Z</time>
      </trkpt>
      <trkpt lat="45.18321" lon="4.65302">
        <ele>478</ele>
        <time>2022-04-09T11:09:58Z</time>
      </trkpt>
      <trkpt lat="45.18303" lon="4.65234">
        <ele>480</ele>
        <time>2022-04-09T11:10:10Z</time>
      </trkpt>
      <trkpt lat="45.18296" lon="4.65179">
        <ele>481</ele>
        <time>2022-04-09T11:10:19Z</time>
      </trkpt>
      <trkpt lat="45.18294" lon="4.65097">
        <ele>479</ele>
        <time>2022-04-09T11:10:32Z</time>
      </trkpt>
      <trkpt lat="45.1829" lon="4.65076">
        <ele>478</ele>
        <time>2022-04-09T11:10:36Z</time>
      </trkpt>
      <trkpt lat="45.18282" lon="4.65059">
        <ele>479</ele>
        <time>2022-04-09T11:10:39Z</time>
      </trkpt>
      <trkpt lat="45.1826" lon="4.65034">
        <ele>481</ele>
        <time>2022-04-09T11:10:46Z</time>
      </trkpt>
      <trkpt lat="45.18221" lon="4.65004">
        <ele>486</ele>
        <time>2022-04-09T11:10:56Z</time>
      </trkpt>
      <trkpt lat="45.18185" lon="4.64962">
        <ele>489</ele>
        <time>2022-04-09T11:11:07Z</time>
      </trkpt>
      <trkpt lat="45.18166" lon="4.64912">
        <ele>488</ele>
        <time>2022-04-09T11:11:17Z</time>
      </trkpt>
      <trkpt lat="45.1815" lon="4.64847">
        <ele>493</ele>
        <time>2022-04-09T11:11:28Z</time>
      </trkpt>
      <trkpt lat="45.18149" lon="4.64825">
        <ele>494</ele>
        <time>2022-04-09T11:11:32Z</time>
      </trkpt>
      <trkpt lat="45.18102" lon="4.64717">
        <ele>499</ele>
        <time>2022-04-09T11:11:52Z</time>
      </trkpt>
      <trkpt lat="45.18075" lon="4.64677">
        <ele>501</ele>
        <time>2022-04-09T11:12:02Z</time>
      </trkpt>
      <trkpt lat="45.1804" lon="4.64614">
        <ele>502</ele>
        <time>2022-04-09T11:12:15Z</time>
      </trkpt>
      <trkpt lat="45.17982" lon="4.64559">
        <ele>508</ele>
        <time>2022-04-09T11:12:31Z</time>
      </trkpt>
      <trkpt lat="45.17934" lon="4.64501">
        <ele>511</ele>
        <time>2022-04-09T11:12:46Z</time>
      </trkpt>
      <trkpt lat="45.17916" lon="4.64484">
        <ele>514</ele>
        <time>2022-04-09T11:12:51Z</time>
      </trkpt>
      <trkpt lat="45.17907" lon="4.6448">
        <ele>514</ele>
        <time>2022-04-09T11:12:53Z</time>
      </trkpt>
      <trkpt lat="45.17869" lon="4.64478">
        <ele>515</ele>
        <time>2022-04-09T11:13:02Z</time>
      </trkpt>
      <trkpt lat="45.17851" lon="4.6448">
        <ele>516</ele>
        <time>2022-04-09T11:13:06Z</time>
      </trkpt>
      <trkpt lat="45.17842" lon="4.64484">
        <ele>516</ele>
        <time>2022-04-09T11:13:08Z</time>
      </trkpt>
      <trkpt lat="45.17838" lon="4.64477">
        <ele>516</ele>
        <time>2022-04-09T11:13:10Z</time>
      </trkpt>
      <trkpt lat="45.1784" lon="4.64449">
        <ele>516</ele>
        <time>2022-04-09T11:13:14Z</time>
      </trkpt>
      <trkpt lat="45.17846" lon="4.64439">
        <ele>516</ele>
        <time>2022-04-09T11:13:17Z</time>
      </trkpt>
      <trkpt lat="45.17876" lon="4.6444">
        <ele>516</ele>
        <time>2022-04-09T11:13:24Z</time>
      </trkpt>
      <trkpt lat="45.17885" lon="4.64433">
        <ele>516</ele>
        <time>2022-04-09T11:13:26Z</time>
      </trkpt>
      <trkpt lat="45.17901" lon="4.64397">
        <ele>518</ele>
        <time>2022-04-09T11:13:33Z</time>
      </trkpt>
      <trkpt lat="45.17923" lon="4.64322">
        <ele>523</ele>
        <time>2022-04-09T11:13:46Z</time>
      </trkpt>
      <trkpt lat="45.1794" lon="4.64292">
        <ele>525</ele>
        <time>2022-04-09T11:13:53Z</time>
      </trkpt>
      <trkpt lat="45.17954" lon="4.64276">
        <ele>526</ele>
        <time>2022-04-09T11:13:57Z</time>
      </trkpt>
      <trkpt lat="45.17964" lon="4.64256">
        <ele>527</ele>
        <time>2022-04-09T11:14:01Z</time>
      </trkpt>
      <trkpt lat="45.17998" lon="4.64119">
        <ele>540</ele>
        <time>2022-04-09T11:14:25Z</time>
      </trkpt>
      <trkpt lat="45.17998" lon="4.64106">
        <ele>543</ele>
        <time>2022-04-09T11:14:27Z</time>
      </trkpt>
      <trkpt lat="45.17991" lon="4.64083">
        <ele>546</ele>
        <time>2022-04-09T11:14:31Z</time>
      </trkpt>
      <trkpt lat="45.17986" lon="4.64077">
        <ele>547</ele>
        <time>2022-04-09T11:14:33Z</time>
      </trkpt>
      <trkpt lat="45.17979" lon="4.64052">
        <ele>550</ele>
        <time>2022-04-09T11:14:37Z</time>
      </trkpt>
      <trkpt lat="45.1798" lon="4.63996">
        <ele>558</ele>
        <time>2022-04-09T11:14:46Z</time>
      </trkpt>
      <trkpt lat="45.17966" lon="4.6396">
        <ele>560</ele>
        <time>2022-04-09T11:14:53Z</time>
      </trkpt>
      <trkpt lat="45.17959" lon="4.63935">
        <ele>562</ele>
        <time>2022-04-09T11:14:57Z</time>
      </trkpt>
      <trkpt lat="45.17922" lon="4.63887">
        <ele>569</ele>
        <time>2022-04-09T11:15:09Z</time>
      </trkpt>
      <trkpt lat="45.17907" lon="4.63847">
        <ele>572</ele>
        <time>2022-04-09T11:15:17Z</time>
      </trkpt>
      <trkpt lat="45.17897" lon="4.63773">
        <ele>572</ele>
        <time>2022-04-09T11:15:29Z</time>
      </trkpt>
      <trkpt lat="45.1788" lon="4.63712">
        <ele>572</ele>
        <time>2022-04-09T11:15:40Z</time>
      </trkpt>
      <trkpt lat="45.17831" lon="4.63626">
        <ele>574</ele>
        <time>2022-04-09T11:15:58Z</time>
      </trkpt>
      <trkpt lat="45.17808" lon="4.63564">
        <ele>570</ele>
        <time>2022-04-09T11:16:10Z</time>
      </trkpt>
      <trkpt lat="45.17797" lon="4.63541">
        <ele>569</ele>
        <time>2022-04-09T11:16:14Z</time>
      </trkpt>
      <trkpt lat="45.17757" lon="4.63469">
        <ele>571</ele>
        <time>2022-04-09T11:16:29Z</time>
      </trkpt>
      <trkpt lat="45.17745" lon="4.63453">
        <ele>572</ele>
        <time>2022-04-09T11:16:33Z</time>
      </trkpt>
      <trkpt lat="45.17726" lon="4.63415">
        <ele>571</ele>
        <time>2022-04-09T11:16:41Z</time>
      </trkpt>
      <trkpt lat="45.17718" lon="4.63396">
        <ele>571</ele>
        <time>2022-04-09T11:16:44Z</time>
      </trkpt>
      <trkpt lat="45.17701" lon="4.63336">
        <ele>571</ele>
        <time>2022-04-09T11:16:55Z</time>
      </trkpt>
      <trkpt lat="45.17696" lon="4.63293">
        <ele>570</ele>
        <time>2022-04-09T11:17:02Z</time>
      </trkpt>
      <trkpt lat="45.17699" lon="4.6327">
        <ele>569</ele>
        <time>2022-04-09T11:17:06Z</time>
      </trkpt>
      <trkpt lat="45.17722" lon="4.63169">
        <ele>565</ele>
        <time>2022-04-09T11:17:24Z</time>
      </trkpt>
      <trkpt lat="45.17728" lon="4.63127">
        <ele>565</ele>
        <time>2022-04-09T11:17:31Z</time>
      </trkpt>
      <trkpt lat="45.17753" lon="4.63007">
        <ele>566</ele>
        <time>2022-04-09T11:17:51Z</time>
      </trkpt>
      <trkpt lat="45.17796" lon="4.62891">
        <ele>563</ele>
        <time>2022-04-09T11:18:13Z</time>
      </trkpt>
      <trkpt lat="45.17824" lon="4.62771">
        <ele>573</ele>
        <time>2022-04-09T11:18:34Z</time>
      </trkpt>
      <trkpt lat="45.17828" lon="4.62721">
        <ele>577</ele>
        <time>2022-04-09T11:18:42Z</time>
      </trkpt>
      <trkpt lat="45.17832" lon="4.62714">
        <ele>579</ele>
        <time>2022-04-09T11:18:43Z</time>
      </trkpt>
      <trkpt lat="45.17919" lon="4.62666">
        <ele>591</ele>
        <time>2022-04-09T11:19:05Z</time>
      </trkpt>
      <trkpt lat="45.17933" lon="4.62665">
        <ele>593</ele>
        <time>2022-04-09T11:19:08Z</time>
      </trkpt>
      <trkpt lat="45.17948" lon="4.62671">
        <ele>595</ele>
        <time>2022-04-09T11:19:12Z</time>
      </trkpt>
      <trkpt lat="45.18005" lon="4.62684">
        <ele>602</ele>
        <time>2022-04-09T11:19:26Z</time>
      </trkpt>
      <trkpt lat="45.18057" lon="4.62691">
        <ele>613</ele>
        <time>2022-04-09T11:19:38Z</time>
      </trkpt>
      <trkpt lat="45.18115" lon="4.62711">
        <ele>622</ele>
        <time>2022-04-09T11:19:52Z</time>
      </trkpt>
      <trkpt lat="45.18156" lon="4.62738">
        <ele>626</ele>
        <time>2022-04-09T11:20:02Z</time>
      </trkpt>
      <trkpt lat="45.18165" lon="4.62753">
        <ele>626</ele>
        <time>2022-04-09T11:20:05Z</time>
      </trkpt>
      <trkpt lat="45.18189" lon="4.62776">
        <ele>627</ele>
        <time>2022-04-09T11:20:12Z</time>
      </trkpt>
      <trkpt lat="45.1822" lon="4.62797">
        <ele>628</ele>
        <time>2022-04-09T11:20:20Z</time>
      </trkpt>
      <trkpt lat="45.18249" lon="4.62813">
        <ele>629</ele>
        <time>2022-04-09T11:20:28Z</time>
      </trkpt>
      <trkpt lat="45.18286" lon="4.6282">
        <ele>631</ele>
        <time>2022-04-09T11:20:36Z</time>
      </trkpt>
      <trkpt lat="45.18298" lon="4.62818">
        <ele>633</ele>
        <time>2022-04-09T11:20:39Z</time>
      </trkpt>
      <trkpt lat="45.18317" lon="4.628">
        <ele>637</ele>
        <time>2022-04-09T11:20:44Z</time>
      </trkpt>
      <trkpt lat="45.18336" lon="4.62794">
        <ele>640</ele>
        <time>2022-04-09T11:20:49Z</time>
      </trkpt>
      <trkpt lat="45.18334" lon="4.62782">
        <ele>642</ele>
        <time>2022-04-09T11:20:51Z</time>
      </trkpt>
      <trkpt lat="45.18325" lon="4.62786">
        <ele>641</ele>
        <time>2022-04-09T11:20:53Z</time>
      </trkpt>
      <trkpt lat="45.18297" lon="4.62778">
        <ele>639</ele>
        <time>2022-04-09T11:21:00Z</time>
      </trkpt>
      <trkpt lat="45.18277" lon="4.62742">
        <ele>643</ele>
        <time>2022-04-09T11:21:07Z</time>
      </trkpt>
      <trkpt lat="45.18237" lon="4.62656">
        <ele>645</ele>
        <time>2022-04-09T11:21:24Z</time>
      </trkpt>
      <trkpt lat="45.18243" lon="4.62623">
        <ele>647</ele>
        <time>2022-04-09T11:21:30Z</time>
      </trkpt>
      <trkpt lat="45.1824" lon="4.62594">
        <ele>648</ele>
        <time>2022-04-09T11:21:35Z</time>
      </trkpt>
      <trkpt lat="45.18224" lon="4.62531">
        <ele>647</ele>
        <time>2022-04-09T11:21:46Z</time>
      </trkpt>
      <trkpt lat="45.18227" lon="4.62521">
        <ele>648</ele>
        <time>2022-04-09T11:21:48Z</time>
      </trkpt>
      <trkpt lat="45.18262" lon="4.6248">
        <ele>655</ele>
        <time>2022-04-09T11:21:58Z</time>
      </trkpt>
      <trkpt lat="45.18294" lon="4.62415">
        <ele>659</ele>
        <time>2022-04-09T11:22:11Z</time>
      </trkpt>
      <trkpt lat="45.18312" lon="4.62357">
        <ele>662</ele>
        <time>2022-04-09T11:22:22Z</time>
      </trkpt>
      <trkpt lat="45.18337" lon="4.62324">
        <ele>667</ele>
        <time>2022-04-09T11:22:30Z</time>
      </trkpt>
      <trkpt lat="45.1834" lon="4.62281">
        <ele>667</ele>
        <time>2022-04-09T11:22:37Z</time>
      </trkpt>
      <trkpt lat="45.18331" lon="4.62247">
        <ele>665</ele>
        <time>2022-04-09T11:22:43Z</time>
      </trkpt>
      <trkpt lat="45.18322" lon="4.62234">
        <ele>663</ele>
        <time>2022-04-09T11:22:46Z</time>
      </trkpt>
      <trkpt lat="45.18313" lon="4.62202">
        <ele>662</ele>
        <time>2022-04-09T11:22:51Z</time>
      </trkpt>
      <trkpt lat="45.18314" lon="4.62156">
        <ele>663</ele>
        <time>2022-04-09T11:22:59Z</time>
      </trkpt>
      <trkpt lat="45.18311" lon="4.62139">
        <ele>663</ele>
        <time>2022-04-09T11:23:02Z</time>
      </trkpt>
      <trkpt lat="45.18339" lon="4.62087">
        <ele>673</ele>
        <time>2022-04-09T11:23:13Z</time>
      </trkpt>
      <trkpt lat="45.18336" lon="4.62002">
        <ele>671</ele>
        <time>2022-04-09T11:23:27Z</time>
      </trkpt>
      <trkpt lat="45.18326" lon="4.61903">
        <ele>666</ele>
        <time>2022-04-09T11:23:43Z</time>
      </trkpt>
      <trkpt lat="45.18329" lon="4.61819">
        <ele>660</ele>
        <time>2022-04-09T11:23:57Z</time>
      </trkpt>
      <trkpt lat="45.18359" lon="4.61754">
        <ele>659</ele>
        <time>2022-04-09T11:24:10Z</time>
      </trkpt>
      <trkpt lat="45.18405" lon="4.61673">
        <ele>660</ele>
        <time>2022-04-09T11:24:27Z</time>
      </trkpt>
      <trkpt lat="45.18408" lon="4.61639">
        <ele>659</ele>
        <time>2022-04-09T11:24:33Z</time>
      </trkpt>
      <trkpt lat="45.18417" lon="4.61609">
        <ele>660</ele>
        <time>2022-04-09T11:24:38Z</time>
      </trkpt>
      <trkpt lat="45.18421" lon="4.61554">
        <ele>659</ele>
        <time>2022-04-09T11:24:47Z</time>
      </trkpt>
      <trkpt lat="45.18432" lon="4.61502">
        <ele>658</ele>
        <time>2022-04-09T11:24:56Z</time>
      </trkpt>
      <trkpt lat="45.18451" lon="4.61469">
        <ele>661</ele>
        <time>2022-04-09T11:25:03Z</time>
      </trkpt>
      <trkpt lat="45.18467" lon="4.61454">
        <ele>663</ele>
        <time>2022-04-09T11:25:07Z</time>
      </trkpt>
      <trkpt lat="45.18465" lon="4.61437">
        <ele>662</ele>
        <time>2022-04-09T11:25:10Z</time>
      </trkpt>
      <trkpt lat="45.18447" lon="4.6141">
        <ele>661</ele>
        <time>2022-04-09T11:25:16Z</time>
      </trkpt>
      <trkpt lat="45.18437" lon="4.61371">
        <ele>664</ele>
        <time>2022-04-09T11:25:23Z</time>
      </trkpt>
      <trkpt lat="45.18428" lon="4.61365">
        <ele>664</ele>
        <time>2022-04-09T11:25:26Z</time>
      </trkpt>
      <trkpt lat="45.18396" lon="4.6138">
        <ele>660</ele>
        <time>2022-04-09T11:25:33Z</time>
      </trkpt>
      <trkpt lat="45.18384" lon="4.61375">
        <ele>660</ele>
        <time>2022-04-09T11:25:36Z</time>
      </trkpt>
      <trkpt lat="45.18362" lon="4.61342">
        <ele>664</ele>
        <time>2022-04-09T11:25:44Z</time>
      </trkpt>
      <trkpt lat="45.1835" lon="4.61334">
        <ele>665</ele>
        <time>2022-04-09T11:25:47Z</time>
      </trkpt>
      <trkpt lat="45.18333" lon="4.61346">
        <ele>663</ele>
        <time>2022-04-09T11:25:51Z</time>
      </trkpt>
      <trkpt lat="45.18325" lon="4.61367">
        <ele>660</ele>
        <time>2022-04-09T11:25:55Z</time>
      </trkpt>
      <trkpt lat="45.18307" lon="4.61388">
        <ele>658</ele>
        <time>2022-04-09T11:26:01Z</time>
      </trkpt>
      <trkpt lat="45.18307" lon="4.61368">
        <ele>662</ele>
        <time>2022-04-09T11:26:04Z</time>
      </trkpt>
      <trkpt lat="45.18314" lon="4.61346">
        <ele>666</ele>
        <time>2022-04-09T11:26:08Z</time>
      </trkpt>
      <trkpt lat="45.18316" lon="4.61282">
        <ele>676</ele>
        <time>2022-04-09T11:26:19Z</time>
      </trkpt>
      <trkpt lat="45.18304" lon="4.61185">
        <ele>690</ele>
        <time>2022-04-09T11:26:35Z</time>
      </trkpt>
      <trkpt lat="45.18278" lon="4.61072">
        <ele>703</ele>
        <time>2022-04-09T11:26:54Z</time>
      </trkpt>
      <trkpt lat="45.18255" lon="4.61019">
        <ele>707</ele>
        <time>2022-04-09T11:27:05Z</time>
      </trkpt>
      <trkpt lat="45.18196" lon="4.60753">
        <ele>738</ele>
        <time>2022-04-09T11:27:50Z</time>
      </trkpt>
      <trkpt lat="45.18132" lon="4.60731">
        <ele>754</ele>
        <time>2022-04-09T11:28:06Z</time>
      </trkpt>
      <trkpt lat="45.18082" lon="4.60575">
        <ele>769</ele>
        <time>2022-04-09T11:28:34Z</time>
      </trkpt>
      <trkpt lat="45.18051" lon="4.60556">
        <ele>779</ele>
        <time>2022-04-09T11:28:42Z</time>
      </trkpt>
      <trkpt lat="45.18045" lon="4.60632">
        <ele>775</ele>
        <time>2022-04-09T11:28:54Z</time>
      </trkpt>
      <trkpt lat="45.18057" lon="4.60709">
        <ele>772</ele>
        <time>2022-04-09T11:29:07Z</time>
      </trkpt>
      <trkpt lat="45.17949" lon="4.60742">
        <ele>782</ele>
        <time>2022-04-09T11:29:33Z</time>
      </trkpt>
      <trkpt lat="45.17909" lon="4.60743">
        <ele>784</ele>
        <time>2022-04-09T11:29:43Z</time>
      </trkpt>
      <trkpt lat="45.17866" lon="4.60742">
        <ele>784</ele>
        <time>2022-04-09T11:29:53Z</time>
      </trkpt>
      <trkpt lat="45.178" lon="4.60715">
        <ele>787</ele>
        <time>2022-04-09T11:30:09Z</time>
      </trkpt>
      <trkpt lat="45.17775" lon="4.60725">
        <ele>782</ele>
        <time>2022-04-09T11:30:15Z</time>
      </trkpt>
      <trkpt lat="45.17753" lon="4.60762">
        <ele>775</ele>
        <time>2022-04-09T11:30:23Z</time>
      </trkpt>
      <trkpt lat="45.17695" lon="4.60827">
        <ele>768</ele>
        <time>2022-04-09T11:30:40Z</time>
      </trkpt>
      <trkpt lat="45.17672" lon="4.60805">
        <ele>767</ele>
        <time>2022-04-09T11:30:46Z</time>
      </trkpt>
      <trkpt lat="45.17673" lon="4.60777">
        <ele>768</ele>
        <time>2022-04-09T11:30:51Z</time>
      </trkpt>
      <trkpt lat="45.17694" lon="4.60696">
        <ele>772</ele>
        <time>2022-04-09T11:31:05Z</time>
      </trkpt>
      <trkpt lat="45.17693" lon="4.60687">
        <ele>772</ele>
        <time>2022-04-09T11:31:07Z</time>
      </trkpt>
      <trkpt lat="45.17677" lon="4.60669">
        <ele>769</ele>
        <time>2022-04-09T11:31:12Z</time>
      </trkpt>
      <trkpt lat="45.17603" lon="4.60552">
        <ele>762</ele>
        <time>2022-04-09T11:31:37Z</time>
      </trkpt>
      <trkpt lat="45.17531" lon="4.60476">
        <ele>751</ele>
        <time>2022-04-09T11:31:58Z</time>
      </trkpt>
      <trkpt lat="45.17495" lon="4.60407">
        <ele>753</ele>
        <time>2022-04-09T11:32:13Z</time>
      </trkpt>
      <trkpt lat="45.17426" lon="4.60424">
        <ele>732</ele>
        <time>2022-04-09T11:32:29Z</time>
      </trkpt>
      <trkpt lat="45.1739" lon="4.60446">
        <ele>720</ele>
        <time>2022-04-09T11:32:38Z</time>
      </trkpt>
      <trkpt lat="45.1734" lon="4.60349">
        <ele>726</ele>
        <time>2022-04-09T11:32:58Z</time>
      </trkpt>
      <trkpt lat="45.17348" lon="4.60142">
        <ele>736</ele>
        <time>2022-04-09T11:33:32Z</time>
      </trkpt>
      <trkpt lat="45.17417" lon="4.60001">
        <ele>753</ele>
        <time>2022-04-09T11:34:00Z</time>
      </trkpt>
      <trkpt lat="45.17432" lon="4.59957">
        <ele>766</ele>
        <time>2022-04-09T11:34:08Z</time>
      </trkpt>
      <trkpt lat="45.17394" lon="4.59896">
        <ele>759</ele>
        <time>2022-04-09T11:34:22Z</time>
      </trkpt>
      <trkpt lat="45.17374" lon="4.59823">
        <ele>760</ele>
        <time>2022-04-09T11:34:35Z</time>
      </trkpt>
      <trkpt lat="45.17376" lon="4.59548">
        <ele>773</ele>
        <time>2022-04-09T11:35:20Z</time>
      </trkpt>
      <trkpt lat="45.17391" lon="4.59409">
        <ele>781</ele>
        <time>2022-04-09T11:35:43Z</time>
      </trkpt>
      <trkpt lat="45.17364" lon="4.59234">
        <ele>782</ele>
        <time>2022-04-09T11:36:12Z</time>
      </trkpt>
      <trkpt lat="45.17564" lon="4.59272">
        <ele>789</ele>
        <time>2022-04-09T11:37:00Z</time>
      </trkpt>
      <trkpt lat="45.17639" lon="4.59343">
        <ele>811</ele>
        <time>2022-04-09T11:37:21Z</time>
      </trkpt>
      <trkpt lat="45.17718" lon="4.59212">
        <ele>812</ele>
        <time>2022-04-09T11:37:49Z</time>
      </trkpt>
      <trkpt lat="45.17706" lon="4.59165">
        <ele>811</ele>
        <time>2022-04-09T11:37:57Z</time>
      </trkpt>
      <trkpt lat="45.1765" lon="4.59113">
        <ele>802</ele>
        <time>2022-04-09T11:38:13Z</time>
      </trkpt>
      <trkpt lat="45.17673" lon="4.58864">
        <ele>810</ele>
        <time>2022-04-09T11:38:54Z</time>
      </trkpt>
      <trkpt lat="45.17737" lon="4.58733">
        <ele>806</ele>
        <time>2022-04-09T11:39:20Z</time>
      </trkpt>
      <trkpt lat="45.1779" lon="4.58743">
        <ele>821</ele>
        <time>2022-04-09T11:39:33Z</time>
      </trkpt>
      <trkpt lat="45.17897" lon="4.58717">
        <ele>832</ele>
        <time>2022-04-09T11:39:58Z</time>
      </trkpt>
      <trkpt lat="45.17913" lon="4.58666">
        <ele>823</ele>
        <time>2022-04-09T11:40:08Z</time>
      </trkpt>
      <trkpt lat="45.17859" lon="4.58581">
        <ele>829</ele>
        <time>2022-04-09T11:40:26Z</time>
      </trkpt>
      <trkpt lat="45.17754" lon="4.58455">
        <ele>832</ele>
        <time>2022-04-09T11:40:58Z</time>
      </trkpt>
      <trkpt lat="45.17703" lon="4.5839">
        <ele>827</ele>
        <time>2022-04-09T11:41:14Z</time>
      </trkpt>
      <trkpt lat="45.17685" lon="4.58194">
        <ele>832</ele>
        <time>2022-04-09T11:41:47Z</time>
      </trkpt>
      <trkpt lat="45.17831" lon="4.57661">
        <ele>846</ele>
        <time>2022-04-09T11:43:21Z</time>
      </trkpt>
      <trkpt lat="45.17916" lon="4.5741">
        <ele>849</ele>
        <time>2022-04-09T11:44:07Z</time>
      </trkpt>
      <trkpt lat="45.17979" lon="4.57278">
        <ele>854</ele>
        <time>2022-04-09T11:44:33Z</time>
      </trkpt>
      <trkpt lat="45.18002" lon="4.57137">
        <ele>850</ele>
        <time>2022-04-09T11:44:57Z</time>
      </trkpt>
      <trkpt lat="45.17962" lon="4.57065">
        <ele>860</ele>
        <time>2022-04-09T11:45:12Z</time>
      </trkpt>
      <trkpt lat="45.17848" lon="4.57171">
        <ele>861</ele>
        <time>2022-04-09T11:45:44Z</time>
      </trkpt>
      <trkpt lat="45.17682" lon="4.57232">
        <ele>878</ele>
        <time>2022-04-09T11:46:24Z</time>
      </trkpt>
      <trkpt lat="45.17786" lon="4.57145">
        <ele>879</ele>
        <time>2022-04-09T11:46:52Z</time>
      </trkpt>
      <trkpt lat="45.17852" lon="4.57065">
        <ele>884</ele>
        <time>2022-04-09T11:47:12Z</time>
      </trkpt>
      <trkpt lat="45.17901" lon="4.56892">
        <ele>896</ele>
        <time>2022-04-09T11:47:43Z</time>
      </trkpt>
      <trkpt lat="45.17907" lon="4.5682">
        <ele>903</ele>
        <time>2022-04-09T11:47:55Z</time>
      </trkpt>
      <trkpt lat="45.17931" lon="4.56817">
        <ele>906</ele>
        <time>2022-04-09T11:48:01Z</time>
      </trkpt>
      <trkpt lat="45.17982" lon="4.5694">
        <ele>890</ele>
        <time>2022-04-09T11:48:24Z</time>
      </trkpt>
      <trkpt lat="45.18014" lon="4.56946">
        <ele>890</ele>
        <time>2022-04-09T11:48:32Z</time>
      </trkpt>
      <trkpt lat="45.18078" lon="4.56915">
        <ele>900</ele>
        <time>2022-04-09T11:48:48Z</time>
      </trkpt>
      <trkpt lat="45.18106" lon="4.56918">
        <ele>905</ele>
        <time>2022-04-09T11:48:54Z</time>
      </trkpt>
      <trkpt lat="45.18131" lon="4.56958">
        <ele>904</ele>
        <time>2022-04-09T11:49:03Z</time>
      </trkpt>
      <trkpt lat="45.18207" lon="4.57105">
        <ele>906</ele>
        <time>2022-04-09T11:49:33Z</time>
      </trkpt>
      <trkpt lat="45.18242" lon="4.57245">
        <ele>915</ele>
        <time>2022-04-09T11:49:57Z</time>
      </trkpt>
      <trkpt lat="45.18241" lon="4.57313">
        <ele>922</ele>
        <time>2022-04-09T11:50:09Z</time>
      </trkpt>
      <trkpt lat="45.1826" lon="4.57309">
        <ele>926</ele>
        <time>2022-04-09T11:50:13Z</time>
      </trkpt>
      <trkpt lat="45.1827" lon="4.57247">
        <ele>924</ele>
        <time>2022-04-09T11:50:24Z</time>
      </trkpt>
      <trkpt lat="45.18264" lon="4.57043">
        <ele>937</ele>
        <time>2022-04-09T11:50:57Z</time>
      </trkpt>
      <trkpt lat="45.1821" lon="4.56895">
        <ele>940</ele>
        <time>2022-04-09T11:51:25Z</time>
      </trkpt>
      <trkpt lat="45.18291" lon="4.57005">
        <ele>954</ele>
        <time>2022-04-09T11:51:51Z</time>
      </trkpt>
      <trkpt lat="45.18318" lon="4.57094">
        <ele>954</ele>
        <time>2022-04-09T11:52:07Z</time>
      </trkpt>
      <trkpt lat="45.18386" lon="4.57234">
        <ele>971</ele>
        <time>2022-04-09T11:52:35Z</time>
      </trkpt>
      <trkpt lat="45.18428" lon="4.57389">
        <ele>987</ele>
        <time>2022-04-09T11:53:02Z</time>
      </trkpt>
      <trkpt lat="45.18434" lon="4.57482">
        <ele>996</ele>
        <time>2022-04-09T11:53:17Z</time>
      </trkpt>
      <trkpt lat="45.18462" lon="4.57408">
        <ele>1000</ele>
        <time>2022-04-09T11:53:31Z</time>
      </trkpt>
      <trkpt lat="45.18467" lon="4.57304">
        <ele>1002</ele>
        <time>2022-04-09T11:53:48Z</time>
      </trkpt>
      <trkpt lat="45.18483" lon="4.57218">
        <ele>1008</ele>
        <time>2022-04-09T11:54:03Z</time>
      </trkpt>
      <trkpt lat="45.18509" lon="4.57168">
        <ele>1014</ele>
        <time>2022-04-09T11:54:13Z</time>
      </trkpt>
      <trkpt lat="45.18523" lon="4.5716">
        <ele>1013</ele>
        <time>2022-04-09T11:54:17Z</time>
      </trkpt>
      <trkpt lat="45.18545" lon="4.57165">
        <ele>1012</ele>
        <time>2022-04-09T11:54:22Z</time>
      </trkpt>
      <trkpt lat="45.18569" lon="4.57183">
        <ele>1013</ele>
        <time>2022-04-09T11:54:28Z</time>
      </trkpt>
      <trkpt lat="45.18615" lon="4.57226">
        <ele>1016</ele>
        <time>2022-04-09T11:54:41Z</time>
      </trkpt>
      <trkpt lat="45.18689" lon="4.57333">
        <ele>1027</ele>
        <time>2022-04-09T11:55:06Z</time>
      </trkpt>
      <trkpt lat="45.18802" lon="4.57392">
        <ele>1028</ele>
        <time>2022-04-09T11:55:34Z</time>
      </trkpt>
      <trkpt lat="45.18888" lon="4.57379">
        <ele>1029</ele>
        <time>2022-04-09T11:55:54Z</time>
      </trkpt>
      <trkpt lat="45.18923" lon="4.57377">
        <ele>1030</ele>
        <time>2022-04-09T11:56:02Z</time>
      </trkpt>
      <trkpt lat="45.1895" lon="4.57394">
        <ele>1027</ele>
        <time>2022-04-09T11:56:09Z</time>
      </trkpt>
      <trkpt lat="45.18947" lon="4.5749">
        <ele>1029</ele>
        <time>2022-04-09T11:56:25Z</time>
      </trkpt>
      <trkpt lat="45.18916" lon="4.57603">
        <ele>1042</ele>
        <time>2022-04-09T11:56:45Z</time>
      </trkpt>
      <trkpt lat="45.18945" lon="4.57789">
        <ele>1044</ele>
        <time>2022-04-09T11:57:16Z</time>
      </trkpt>
      <trkpt lat="45.1897" lon="4.57912">
        <ele>1049</ele>
        <time>2022-04-09T11:57:37Z</time>
      </trkpt>
      <trkpt lat="45.19033" lon="4.58046">
        <ele>1042</ele>
        <time>2022-04-09T11:58:04Z</time>
      </trkpt>
      <trkpt lat="45.19055" lon="4.581">
        <ele>1040</ele>
        <time>2022-04-09T11:58:14Z</time>
      </trkpt>
      <trkpt lat="45.19073" lon="4.58173">
        <ele>1037</ele>
        <time>2022-04-09T11:58:27Z</time>
      </trkpt>
      <trkpt lat="45.19049" lon="4.58309">
        <ele>1024</ele>
        <time>2022-04-09T11:58:50Z</time>
      </trkpt>
      <trkpt lat="45.19052" lon="4.58448">
        <ele>1005</ele>
        <time>2022-04-09T11:59:13Z</time>
      </trkpt>
      <trkpt lat="45.19059" lon="4.58589">
        <ele>997</ele>
        <time>2022-04-09T11:59:36Z</time>
      </trkpt>
      <trkpt lat="45.19095" lon="4.58711">
        <ele>987</ele>
        <time>2022-04-09T11:59:58Z</time>
      </trkpt>
      <trkpt lat="45.19156" lon="4.58796">
        <ele>989</ele>
        <time>2022-04-09T12:00:18Z</time>
      </trkpt>
      <trkpt lat="45.19196" lon="4.58813">
        <ele>982</ele>
        <time>2022-04-09T12:00:28Z</time>
      </trkpt>
      <trkpt lat="45.19231" lon="4.58854">
        <ele>981</ele>
        <time>2022-04-09T12:00:38Z</time>
      </trkpt>
      <trkpt lat="45.19258" lon="4.58929">
        <ele>982</ele>
        <time>2022-04-09T12:00:52Z</time>
      </trkpt>
      <trkpt lat="45.19266" lon="4.59042">
        <ele>980</ele>
        <time>2022-04-09T12:01:11Z</time>
      </trkpt>
      <trkpt lat="45.19243" lon="4.59103">
        <ele>982</ele>
        <time>2022-04-09T12:01:22Z</time>
      </trkpt>
      <trkpt lat="45.19209" lon="4.59145">
        <ele>983</ele>
        <time>2022-04-09T12:01:33Z</time>
      </trkpt>
      <trkpt lat="45.19139" lon="4.59189">
        <ele>997</ele>
        <time>2022-04-09T12:01:51Z</time>
      </trkpt>
      <trkpt lat="45.19064" lon="4.59312">
        <ele>1005</ele>
        <time>2022-04-09T12:02:17Z</time>
      </trkpt>
      <trkpt lat="45.19043" lon="4.59369">
        <ele>1009</ele>
        <time>2022-04-09T12:02:28Z</time>
      </trkpt>
      <trkpt lat="45.19033" lon="4.59424">
        <ele>1010</ele>
        <time>2022-04-09T12:02:37Z</time>
      </trkpt>
      <trkpt lat="45.19033" lon="4.59475">
        <ele>1010</ele>
        <time>2022-04-09T12:02:46Z</time>
      </trkpt>
      <trkpt lat="45.19066" lon="4.59582">
        <ele>999</ele>
        <time>2022-04-09T12:03:05Z</time>
      </trkpt>
      <trkpt lat="45.19087" lon="4.59676">
        <ele>997</ele>
        <time>2022-04-09T12:03:21Z</time>
      </trkpt>
      <trkpt lat="45.19076" lon="4.59785">
        <ele>995</ele>
        <time>2022-04-09T12:03:39Z</time>
      </trkpt>
      <trkpt lat="45.19121" lon="4.59863">
        <ele>990</ele>
        <time>2022-04-09T12:03:56Z</time>
      </trkpt>
      <trkpt lat="45.19266" lon="4.59968">
        <ele>987</ele>
        <time>2022-04-09T12:04:34Z</time>
      </trkpt>
      <trkpt lat="45.19481" lon="4.60047">
        <ele>970</ele>
        <time>2022-04-09T12:05:26Z</time>
      </trkpt>
      <trkpt lat="45.19572" lon="4.60015">
        <ele>965</ele>
        <time>2022-04-09T12:05:48Z</time>
      </trkpt>
      <trkpt lat="45.19641" lon="4.59947">
        <ele>949</ele>
        <time>2022-04-09T12:06:07Z</time>
      </trkpt>
      <trkpt lat="45.19748" lon="4.59968">
        <ele>946</ele>
        <time>2022-04-09T12:06:32Z</time>
      </trkpt>
      <trkpt lat="45.19827" lon="4.59948">
        <ele>934</ele>
        <time>2022-04-09T12:06:51Z</time>
      </trkpt>
      <trkpt lat="45.19931" lon="4.60094">
        <ele>919</ele>
        <time>2022-04-09T12:07:25Z</time>
      </trkpt>
      <trkpt lat="45.19981" lon="4.6022">
        <ele>911</ele>
        <time>2022-04-09T12:07:49Z</time>
      </trkpt>
      <trkpt lat="45.20068" lon="4.60256">
        <ele>898</ele>
        <time>2022-04-09T12:08:10Z</time>
      </trkpt>
      <trkpt lat="45.20101" lon="4.60328">
        <ele>900</ele>
        <time>2022-04-09T12:08:24Z</time>
      </trkpt>
      <trkpt lat="45.20167" lon="4.60325">
        <ele>903</ele>
        <time>2022-04-09T12:08:40Z</time>
      </trkpt>
      <trkpt lat="45.20274" lon="4.60303">
        <ele>911</ele>
        <time>2022-04-09T12:09:05Z</time>
      </trkpt>
      <trkpt lat="45.2055" lon="4.60218">
        <ele>909</ele>
        <time>2022-04-09T12:10:11Z</time>
      </trkpt>
      <trkpt lat="45.20591" lon="4.60222">
        <ele>906</ele>
        <time>2022-04-09T12:10:21Z</time>
      </trkpt>
      <trkpt lat="45.20657" lon="4.6033">
        <ele>908</ele>
        <time>2022-04-09T12:10:44Z</time>
      </trkpt>
      <trkpt lat="45.2076" lon="4.60463">
        <ele>902</ele>
        <time>2022-04-09T12:11:17Z</time>
      </trkpt>
      <trkpt lat="45.21004" lon="4.60552">
        <ele>881</ele>
        <time>2022-04-09T12:12:16Z</time>
      </trkpt>
      <trkpt lat="45.21095" lon="4.6066">
        <ele>868</ele>
        <time>2022-04-09T12:12:43Z</time>
      </trkpt>
      <trkpt lat="45.21163" lon="4.60764">
        <ele>864</ele>
        <time>2022-04-09T12:13:07Z</time>
      </trkpt>
      <trkpt lat="45.21198" lon="4.60891">
        <ele>851</ele>
        <time>2022-04-09T12:13:29Z</time>
      </trkpt>
      <trkpt lat="45.21252" lon="4.61011">
        <ele>842</ele>
        <time>2022-04-09T12:13:52Z</time>
      </trkpt>
      <trkpt lat="45.21263" lon="4.61126">
        <ele>821</ele>
        <time>2022-04-09T12:14:12Z</time>
      </trkpt>
      <trkpt lat="45.21311" lon="4.61195">
        <ele>805</ele>
        <time>2022-04-09T12:14:28Z</time>
      </trkpt>
      <trkpt lat="45.21412" lon="4.61181">
        <ele>784</ele>
        <time>2022-04-09T12:14:51Z</time>
      </trkpt>
      <trkpt lat="45.21455" lon="4.61301">
        <ele>762</ele>
        <time>2022-04-09T12:15:13Z</time>
      </trkpt>
      <trkpt lat="45.2149" lon="4.61337">
        <ele>759</ele>
        <time>2022-04-09T12:15:23Z</time>
      </trkpt>
      <trkpt lat="45.2149" lon="4.61389">
        <ele>758</ele>
        <time>2022-04-09T12:15:32Z</time>
      </trkpt>
      <trkpt lat="45.21419" lon="4.61372">
        <ele>753</ele>
        <time>2022-04-09T12:15:49Z</time>
      </trkpt>
      <trkpt lat="45.21456" lon="4.61411">
        <ele>752</ele>
        <time>2022-04-09T12:16:00Z</time>
      </trkpt>
      <trkpt lat="45.21524" lon="4.61575">
        <ele>747</ele>
        <time>2022-04-09T12:16:31Z</time>
      </trkpt>
      <trkpt lat="45.21541" lon="4.61608">
        <ele>746</ele>
        <time>2022-04-09T12:16:38Z</time>
      </trkpt>
      <trkpt lat="45.21568" lon="4.61633">
        <ele>747</ele>
        <time>2022-04-09T12:16:45Z</time>
      </trkpt>
      <trkpt lat="45.2147" lon="4.61798">
        <ele>741</ele>
        <time>2022-04-09T12:17:21Z</time>
      </trkpt>
      <trkpt lat="45.21432" lon="4.61851">
        <ele>736</ele>
        <time>2022-04-09T12:17:33Z</time>
      </trkpt>
      <trkpt lat="45.21409" lon="4.61913">
        <ele>735</ele>
        <time>2022-04-09T12:17:45Z</time>
      </trkpt>
      <trkpt lat="45.21394" lon="4.61982">
        <ele>733</ele>
        <time>2022-04-09T12:17:57Z</time>
      </trkpt>
      <trkpt lat="45.214" lon="4.62041">
        <ele>733</ele>
        <time>2022-04-09T12:18:06Z</time>
      </trkpt>
      <trkpt lat="45.21414" lon="4.62109">
        <ele>725</ele>
        <time>2022-04-09T12:18:18Z</time>
      </trkpt>
      <trkpt lat="45.21384" lon="4.62086">
        <ele>725</ele>
        <time>2022-04-09T12:18:26Z</time>
      </trkpt>
      <trkpt lat="45.21336" lon="4.62082">
        <ele>715</ele>
        <time>2022-04-09T12:18:37Z</time>
      </trkpt>
      <trkpt lat="45.21322" lon="4.62047">
        <ele>710</ele>
        <time>2022-04-09T12:18:44Z</time>
      </trkpt>
      <trkpt lat="45.21337" lon="4.61992">
        <ele>713</ele>
        <time>2022-04-09T12:18:53Z</time>
      </trkpt>
      <trkpt lat="45.21339" lon="4.61857">
        <ele>702</ele>
        <time>2022-04-09T12:19:16Z</time>
      </trkpt>
      <trkpt lat="45.21351" lon="4.61743">
        <ele>697</ele>
        <time>2022-04-09T12:19:35Z</time>
      </trkpt>
      <trkpt lat="45.21316" lon="4.61696">
        <ele>693</ele>
        <time>2022-04-09T12:19:46Z</time>
      </trkpt>
      <trkpt lat="45.21282" lon="4.61728">
        <ele>685</ele>
        <time>2022-04-09T12:19:55Z</time>
      </trkpt>
      <trkpt lat="45.21218" lon="4.61737">
        <ele>679</ele>
        <time>2022-04-09T12:20:10Z</time>
      </trkpt>
      <trkpt lat="45.21112" lon="4.61799">
        <ele>665</ele>
        <time>2022-04-09T12:20:37Z</time>
      </trkpt>
      <trkpt lat="45.21039" lon="4.61755">
        <ele>666</ele>
        <time>2022-04-09T12:20:56Z</time>
      </trkpt>
      <trkpt lat="45.20993" lon="4.61716">
        <ele>665</ele>
        <time>2022-04-09T12:21:08Z</time>
      </trkpt>
      <trkpt lat="45.2098" lon="4.61643">
        <ele>674</ele>
        <time>2022-04-09T12:21:21Z</time>
      </trkpt>
      <trkpt lat="45.20923" lon="4.61565">
        <ele>674</ele>
        <time>2022-04-09T12:21:39Z</time>
      </trkpt>
      <trkpt lat="45.20855" lon="4.61624">
        <ele>671</ele>
        <time>2022-04-09T12:21:58Z</time>
      </trkpt>
      <trkpt lat="45.20839" lon="4.61649">
        <ele>671</ele>
        <time>2022-04-09T12:22:03Z</time>
      </trkpt>
      <trkpt lat="45.20838" lon="4.61703">
        <ele>671</ele>
        <time>2022-04-09T12:22:12Z</time>
      </trkpt>
      <trkpt lat="45.20855" lon="4.61835">
        <ele>669</ele>
        <time>2022-04-09T12:22:34Z</time>
      </trkpt>
      <trkpt lat="45.20832" lon="4.61791">
        <ele>675</ele>
        <time>2022-04-09T12:22:43Z</time>
      </trkpt>
      <trkpt lat="45.20834" lon="4.61831">
        <ele>676</ele>
        <time>2022-04-09T12:22:50Z</time>
      </trkpt>
      <trkpt lat="45.2085" lon="4.61885">
        <ele>673</ele>
        <time>2022-04-09T12:23:00Z</time>
      </trkpt>
      <trkpt lat="45.20865" lon="4.61968">
        <ele>674</ele>
        <time>2022-04-09T12:23:14Z</time>
      </trkpt>
      <trkpt lat="45.20867" lon="4.61992">
        <ele>675</ele>
        <time>2022-04-09T12:23:18Z</time>
      </trkpt>
      <trkpt lat="45.20928" lon="4.62162">
        <ele>659</ele>
        <time>2022-04-09T12:23:49Z</time>
      </trkpt>
      <trkpt lat="45.20949" lon="4.62242">
        <ele>650</ele>
        <time>2022-04-09T12:24:03Z</time>
      </trkpt>
      <trkpt lat="45.20961" lon="4.62269">
        <ele>644</ele>
        <time>2022-04-09T12:24:08Z</time>
      </trkpt>
      <trkpt lat="45.20973" lon="4.62319">
        <ele>636</ele>
        <time>2022-04-09T12:24:17Z</time>
      </trkpt>
      <trkpt lat="45.21032" lon="4.62408">
        <ele>619</ele>
        <time>2022-04-09T12:24:37Z</time>
      </trkpt>
      <trkpt lat="45.21042" lon="4.62444">
        <ele>617</ele>
        <time>2022-04-09T12:24:43Z</time>
      </trkpt>
      <trkpt lat="45.21069" lon="4.62501">
        <ele>616</ele>
        <time>2022-04-09T12:24:55Z</time>
      </trkpt>
      <trkpt lat="45.21084" lon="4.62502">
        <ele>616</ele>
        <time>2022-04-09T12:24:58Z</time>
      </trkpt>
      <trkpt lat="45.21085" lon="4.62517">
        <ele>615</ele>
        <time>2022-04-09T12:25:01Z</time>
      </trkpt>
      <trkpt lat="45.21093" lon="4.6253">
        <ele>614</ele>
        <time>2022-04-09T12:25:04Z</time>
      </trkpt>
      <trkpt lat="45.21091" lon="4.62571">
        <ele>614</ele>
        <time>2022-04-09T12:25:10Z</time>
      </trkpt>
      <trkpt lat="45.21093" lon="4.626">
        <ele>614</ele>
        <time>2022-04-09T12:25:15Z</time>
      </trkpt>
      <trkpt lat="45.21097" lon="4.62615">
        <ele>613</ele>
        <time>2022-04-09T12:25:18Z</time>
      </trkpt>
      <trkpt lat="45.21095" lon="4.6264">
        <ele>613</ele>
        <time>2022-04-09T12:25:22Z</time>
      </trkpt>
      <trkpt lat="45.21104" lon="4.62654">
        <ele>613</ele>
        <time>2022-04-09T12:25:25Z</time>
      </trkpt>
      <trkpt lat="45.21111" lon="4.62671">
        <ele>613</ele>
        <time>2022-04-09T12:25:28Z</time>
      </trkpt>
      <trkpt lat="45.21134" lon="4.62693">
        <ele>613</ele>
        <time>2022-04-09T12:25:35Z</time>
      </trkpt>
      <trkpt lat="45.21137" lon="4.62705">
        <ele>613</ele>
        <time>2022-04-09T12:25:37Z</time>
      </trkpt>
      <trkpt lat="45.21142" lon="4.62707">
        <ele>613</ele>
        <time>2022-04-09T12:25:38Z</time>
      </trkpt>
      <trkpt lat="45.21142" lon="4.62722">
        <ele>613</ele>
        <time>2022-04-09T12:25:41Z</time>
      </trkpt>
      <trkpt lat="45.2115" lon="4.62743">
        <ele>613</ele>
        <time>2022-04-09T12:25:44Z</time>
      </trkpt>
      <trkpt lat="45.21172" lon="4.62744">
        <ele>615</ele>
        <time>2022-04-09T12:25:50Z</time>
      </trkpt>
      <trkpt lat="45.21194" lon="4.6275">
        <ele>614</ele>
        <time>2022-04-09T12:25:55Z</time>
      </trkpt>
      <trkpt lat="45.21198" lon="4.6276">
        <ele>614</ele>
        <time>2022-04-09T12:25:57Z</time>
      </trkpt>
      <trkpt lat="45.212" lon="4.62777">
        <ele>614</ele>
        <time>2022-04-09T12:26:00Z</time>
      </trkpt>
      <trkpt lat="45.21207" lon="4.62784">
        <ele>614</ele>
        <time>2022-04-09T12:26:02Z</time>
      </trkpt>
      <trkpt lat="45.21218" lon="4.62785">
        <ele>614</ele>
        <time>2022-04-09T12:26:04Z</time>
      </trkpt>
      <trkpt lat="45.21228" lon="4.62777">
        <ele>614</ele>
        <time>2022-04-09T12:26:07Z</time>
      </trkpt>
      <trkpt lat="45.21238" lon="4.62787">
        <ele>615</ele>
        <time>2022-04-09T12:26:10Z</time>
      </trkpt>
      <trkpt lat="45.21244" lon="4.62799">
        <ele>616</ele>
        <time>2022-04-09T12:26:12Z</time>
      </trkpt>
      <trkpt lat="45.21243" lon="4.62825">
        <ele>618</ele>
        <time>2022-04-09T12:26:16Z</time>
      </trkpt>
      <trkpt lat="45.21248" lon="4.62832">
        <ele>620</ele>
        <time>2022-04-09T12:26:18Z</time>
      </trkpt>
      <trkpt lat="45.21253" lon="4.62838">
        <ele>619</ele>
        <time>2022-04-09T12:26:20Z</time>
      </trkpt>
      <trkpt lat="45.21266" lon="4.62839">
        <ele>617</ele>
        <time>2022-04-09T12:26:23Z</time>
      </trkpt>
      <trkpt lat="45.2129" lon="4.62859">
        <ele>614</ele>
        <time>2022-04-09T12:26:29Z</time>
      </trkpt>
      <trkpt lat="45.21292" lon="4.62872">
        <ele>615</ele>
        <time>2022-04-09T12:26:31Z</time>
      </trkpt>
      <trkpt lat="45.21285" lon="4.62898">
        <ele>617</ele>
        <time>2022-04-09T12:26:36Z</time>
      </trkpt>
      <trkpt lat="45.21285" lon="4.62918">
        <ele>618</ele>
        <time>2022-04-09T12:26:39Z</time>
      </trkpt>
      <trkpt lat="45.2129" lon="4.62936">
        <ele>618</ele>
        <time>2022-04-09T12:26:42Z</time>
      </trkpt>
      <trkpt lat="45.21294" lon="4.63004">
        <ele>619</ele>
        <time>2022-04-09T12:26:54Z</time>
      </trkpt>
      <trkpt lat="45.21298" lon="4.63026">
        <ele>618</ele>
        <time>2022-04-09T12:26:57Z</time>
      </trkpt>
      <trkpt lat="45.21307" lon="4.63048">
        <ele>618</ele>
        <time>2022-04-09T12:27:01Z</time>
      </trkpt>
      <trkpt lat="45.21322" lon="4.6307">
        <ele>618</ele>
        <time>2022-04-09T12:27:06Z</time>
      </trkpt>
      <trkpt lat="45.21342" lon="4.63077">
        <ele>618</ele>
        <time>2022-04-09T12:27:11Z</time>
      </trkpt>
      <trkpt lat="45.21373" lon="4.63094">
        <ele>614</ele>
        <time>2022-04-09T12:27:19Z</time>
      </trkpt>
      <trkpt lat="45.2142" lon="4.63127">
        <ele>609</ele>
        <time>2022-04-09T12:27:31Z</time>
      </trkpt>
      <trkpt lat="45.21431" lon="4.63146">
        <ele>607</ele>
        <time>2022-04-09T12:27:35Z</time>
      </trkpt>
      <trkpt lat="45.21447" lon="4.63163">
        <ele>606</ele>
        <time>2022-04-09T12:27:40Z</time>
      </trkpt>
      <trkpt lat="45.21468" lon="4.63171">
        <ele>605</ele>
        <time>2022-04-09T12:27:45Z</time>
      </trkpt>
      <trkpt lat="45.21478" lon="4.63181">
        <ele>604</ele>
        <time>2022-04-09T12:27:48Z</time>
      </trkpt>
      <trkpt lat="45.21499" lon="4.63211">
        <ele>603</ele>
        <time>2022-04-09T12:27:55Z</time>
      </trkpt>
      <trkpt lat="45.21507" lon="4.63233">
        <ele>602</ele>
        <time>2022-04-09T12:27:59Z</time>
      </trkpt>
      <trkpt lat="45.21503" lon="4.63244">
        <ele>603</ele>
        <time>2022-04-09T12:28:01Z</time>
      </trkpt>
      <trkpt lat="45.21496" lon="4.63249">
        <ele>603</ele>
        <time>2022-04-09T12:28:03Z</time>
      </trkpt>
      <trkpt lat="45.21493" lon="4.6326">
        <ele>602</ele>
        <time>2022-04-09T12:28:05Z</time>
      </trkpt>
      <trkpt lat="45.21503" lon="4.63267">
        <ele>602</ele>
        <time>2022-04-09T12:28:07Z</time>
      </trkpt>
      <trkpt lat="45.21546" lon="4.63326">
        <ele>600</ele>
        <time>2022-04-09T12:28:21Z</time>
      </trkpt>
      <trkpt lat="45.21558" lon="4.63364">
        <ele>601</ele>
        <time>2022-04-09T12:28:28Z</time>
      </trkpt>
      <trkpt lat="45.21586" lon="4.63403">
        <ele>604</ele>
        <time>2022-04-09T12:28:37Z</time>
      </trkpt>
      <trkpt lat="45.21615" lon="4.63429">
        <ele>606</ele>
        <time>2022-04-09T12:28:45Z</time>
      </trkpt>
      <trkpt lat="45.21654" lon="4.63439">
        <ele>607</ele>
        <time>2022-04-09T12:28:55Z</time>
      </trkpt>
      <trkpt lat="45.21696" lon="4.63476">
        <ele>605</ele>
        <time>2022-04-09T12:29:06Z</time>
      </trkpt>
      <trkpt lat="45.21734" lon="4.63476">
        <ele>603</ele>
        <time>2022-04-09T12:29:15Z</time>
      </trkpt>
      <trkpt lat="45.21749" lon="4.63523">
        <ele>603</ele>
        <time>2022-04-09T12:29:24Z</time>
      </trkpt>
      <trkpt lat="45.21775" lon="4.63538">
        <ele>598</ele>
        <time>2022-04-09T12:29:30Z</time>
      </trkpt>
      <trkpt lat="45.21806" lon="4.63539">
        <ele>593</ele>
        <time>2022-04-09T12:29:37Z</time>
      </trkpt>
      <trkpt lat="45.21837" lon="4.6356">
        <ele>587</ele>
        <time>2022-04-09T12:29:45Z</time>
      </trkpt>
      <trkpt lat="45.21813" lon="4.63647">
        <ele>582</ele>
        <time>2022-04-09T12:30:01Z</time>
      </trkpt>
      <trkpt lat="45.21816" lon="4.6368">
        <ele>577</ele>
        <time>2022-04-09T12:30:06Z</time>
      </trkpt>
      <trkpt lat="45.21858" lon="4.63749">
        <ele>563</ele>
        <time>2022-04-09T12:30:21Z</time>
      </trkpt>
      <trkpt lat="45.21888" lon="4.63784">
        <ele>558</ele>
        <time>2022-04-09T12:30:30Z</time>
      </trkpt>
      <trkpt lat="45.21922" lon="4.63805">
        <ele>556</ele>
        <time>2022-04-09T12:30:39Z</time>
      </trkpt>
      <trkpt lat="45.21926" lon="4.63841">
        <ele>556</ele>
        <time>2022-04-09T12:30:45Z</time>
      </trkpt>
      <trkpt lat="45.22039" lon="4.63936">
        <ele>560</ele>
        <time>2022-04-09T12:31:16Z</time>
      </trkpt>
      <trkpt lat="45.22028" lon="4.63991">
        <ele>560</ele>
        <time>2022-04-09T12:31:25Z</time>
      </trkpt>
      <trkpt lat="45.22025" lon="4.64032">
        <ele>555</ele>
        <time>2022-04-09T12:31:32Z</time>
      </trkpt>
      <trkpt lat="45.21984" lon="4.64042">
        <ele>549</ele>
        <time>2022-04-09T12:31:42Z</time>
      </trkpt>
      <trkpt lat="45.21989" lon="4.64101">
        <ele>539</ele>
        <time>2022-04-09T12:31:51Z</time>
      </trkpt>
      <trkpt lat="45.22017" lon="4.64157">
        <ele>532</ele>
        <time>2022-04-09T12:32:03Z</time>
      </trkpt>
      <trkpt lat="45.22017" lon="4.64197">
        <ele>524</ele>
        <time>2022-04-09T12:32:09Z</time>
      </trkpt>
      <trkpt lat="45.22039" lon="4.64226">
        <ele>521</ele>
        <time>2022-04-09T12:32:16Z</time>
      </trkpt>
      <trkpt lat="45.22192" lon="4.6424">
        <ele>525</ele>
        <time>2022-04-09T12:32:52Z</time>
      </trkpt>
      <trkpt lat="45.22305" lon="4.64233">
        <ele>523</ele>
        <time>2022-04-09T12:33:18Z</time>
      </trkpt>
      <trkpt lat="45.22355" lon="4.64234">
        <ele>524</ele>
        <time>2022-04-09T12:33:30Z</time>
      </trkpt>
      <trkpt lat="45.22396" lon="4.64219">
        <ele>528</ele>
        <time>2022-04-09T12:33:40Z</time>
      </trkpt>
      <trkpt lat="45.2243" lon="4.64198">
        <ele>531</ele>
        <time>2022-04-09T12:33:49Z</time>
      </trkpt>
      <trkpt lat="45.22448" lon="4.64177">
        <ele>533</ele>
        <time>2022-04-09T12:33:54Z</time>
      </trkpt>
      <trkpt lat="45.22468" lon="4.6411">
        <ele>536</ele>
        <time>2022-04-09T12:34:06Z</time>
      </trkpt>
      <trkpt lat="45.22505" lon="4.64077">
        <ele>533</ele>
        <time>2022-04-09T12:34:16Z</time>
      </trkpt>
      <trkpt lat="45.22581" lon="4.64095">
        <ele>523</ele>
        <time>2022-04-09T12:34:34Z</time>
      </trkpt>
      <trkpt lat="45.22603" lon="4.64104">
        <ele>522</ele>
        <time>2022-04-09T12:34:40Z</time>
      </trkpt>
      <trkpt lat="45.22624" lon="4.64088">
        <ele>521</ele>
        <time>2022-04-09T12:34:45Z</time>
      </trkpt>
      <trkpt lat="45.22641" lon="4.64086">
        <ele>520</ele>
        <time>2022-04-09T12:34:49Z</time>
      </trkpt>
      <trkpt lat="45.22673" lon="4.64087">
        <ele>518</ele>
        <time>2022-04-09T12:34:57Z</time>
      </trkpt>
      <trkpt lat="45.22687" lon="4.64091">
        <ele>517</ele>
        <time>2022-04-09T12:35:00Z</time>
      </trkpt>
      <trkpt lat="45.22695" lon="4.641">
        <ele>516</ele>
        <time>2022-04-09T12:35:02Z</time>
      </trkpt>
      <trkpt lat="45.22708" lon="4.64102">
        <ele>515</ele>
        <time>2022-04-09T12:35:05Z</time>
      </trkpt>
      <trkpt lat="45.22723" lon="4.64082">
        <ele>513</ele>
        <time>2022-04-09T12:35:10Z</time>
      </trkpt>
      <trkpt lat="45.22742" lon="4.64048">
        <ele>508</ele>
        <time>2022-04-09T12:35:17Z</time>
      </trkpt>
      <trkpt lat="45.22787" lon="4.64073">
        <ele>507</ele>
        <time>2022-04-09T12:35:29Z</time>
      </trkpt>
      <trkpt lat="45.22794" lon="4.64088">
        <ele>508</ele>
        <time>2022-04-09T12:35:32Z</time>
      </trkpt>
      <trkpt lat="45.22805" lon="4.6409">
        <ele>507</ele>
        <time>2022-04-09T12:35:34Z</time>
      </trkpt>
      <trkpt lat="45.22817" lon="4.6408">
        <ele>505</ele>
        <time>2022-04-09T12:35:37Z</time>
      </trkpt>
      <trkpt lat="45.2283" lon="4.64074">
        <ele>503</ele>
        <time>2022-04-09T12:35:41Z</time>
      </trkpt>
      <trkpt lat="45.22849" lon="4.64075">
        <ele>500</ele>
        <time>2022-04-09T12:35:45Z</time>
      </trkpt>
      <trkpt lat="45.22858" lon="4.64084">
        <ele>500</ele>
        <time>2022-04-09T12:35:48Z</time>
      </trkpt>
      <trkpt lat="45.22869" lon="4.64082">
        <ele>498</ele>
        <time>2022-04-09T12:35:50Z</time>
      </trkpt>
      <trkpt lat="45.22895" lon="4.6411">
        <ele>497</ele>
        <time>2022-04-09T12:35:58Z</time>
      </trkpt>
      <trkpt lat="45.22902" lon="4.64109">
        <ele>496</ele>
        <time>2022-04-09T12:35:59Z</time>
      </trkpt>
      <trkpt lat="45.22926" lon="4.64156">
        <ele>497</ele>
        <time>2022-04-09T12:36:09Z</time>
      </trkpt>
      <trkpt lat="45.22937" lon="4.64214">
        <ele>500</ele>
        <time>2022-04-09T12:36:19Z</time>
      </trkpt>
      <trkpt lat="45.22951" lon="4.64233">
        <ele>499</ele>
        <time>2022-04-09T12:36:23Z</time>
      </trkpt>
      <trkpt lat="45.22956" lon="4.64261">
        <ele>501</ele>
        <time>2022-04-09T12:36:28Z</time>
      </trkpt>
      <trkpt lat="45.22956" lon="4.64313">
        <ele>504</ele>
        <time>2022-04-09T12:36:37Z</time>
      </trkpt>
      <trkpt lat="45.22959" lon="4.64329">
        <ele>505</ele>
        <time>2022-04-09T12:36:39Z</time>
      </trkpt>
      <trkpt lat="45.22959" lon="4.64348">
        <ele>506</ele>
        <time>2022-04-09T12:36:43Z</time>
      </trkpt>
      <trkpt lat="45.22964" lon="4.64343">
        <ele>506</ele>
        <time>2022-04-09T12:36:44Z</time>
      </trkpt>
      <trkpt lat="45.22971" lon="4.64341">
        <ele>506</ele>
        <time>2022-04-09T12:36:46Z</time>
      </trkpt>
      <trkpt lat="45.22977" lon="4.64349">
        <ele>506</ele>
        <time>2022-04-09T12:36:48Z</time>
      </trkpt>
      <trkpt lat="45.23002" lon="4.64371">
        <ele>508</ele>
        <time>2022-04-09T12:36:54Z</time>
      </trkpt>
      <trkpt lat="45.23032" lon="4.64409">
        <ele>511</ele>
        <time>2022-04-09T12:37:04Z</time>
      </trkpt>
      <trkpt lat="45.23059" lon="4.64415">
        <ele>510</ele>
        <time>2022-04-09T12:37:10Z</time>
      </trkpt>
      <trkpt lat="45.23066" lon="4.64426">
        <ele>510</ele>
        <time>2022-04-09T12:37:13Z</time>
      </trkpt>
      <trkpt lat="45.23088" lon="4.64438">
        <ele>510</ele>
        <time>2022-04-09T12:37:18Z</time>
      </trkpt>
      <trkpt lat="45.23093" lon="4.64454">
        <ele>511</ele>
        <time>2022-04-09T12:37:21Z</time>
      </trkpt>
      <trkpt lat="45.23095" lon="4.64473">
        <ele>512</ele>
        <time>2022-04-09T12:37:24Z</time>
      </trkpt>
      <trkpt lat="45.23085" lon="4.64491">
        <ele>515</ele>
        <time>2022-04-09T12:37:28Z</time>
      </trkpt>
      <trkpt lat="45.23084" lon="4.645">
        <ele>516</ele>
        <time>2022-04-09T12:37:29Z</time>
      </trkpt>
      <trkpt lat="45.23101" lon="4.64562">
        <ele>512</ele>
        <time>2022-04-09T12:37:40Z</time>
      </trkpt>
      <trkpt lat="45.23116" lon="4.64571">
        <ele>511</ele>
        <time>2022-04-09T12:37:44Z</time>
      </trkpt>
      <trkpt lat="45.23138" lon="4.64599">
        <ele>508</ele>
        <time>2022-04-09T12:37:51Z</time>
      </trkpt>
      <trkpt lat="45.23174" lon="4.64607">
        <ele>505</ele>
        <time>2022-04-09T12:38:00Z</time>
      </trkpt>
      <trkpt lat="45.2319" lon="4.64607">
        <ele>504</ele>
        <time>2022-04-09T12:38:03Z</time>
      </trkpt>
      <trkpt lat="45.23199" lon="4.646">
        <ele>504</ele>
        <time>2022-04-09T12:38:06Z</time>
      </trkpt>
      <trkpt lat="45.2321" lon="4.64605">
        <ele>502</ele>
        <time>2022-04-09T12:38:08Z</time>
      </trkpt>
      <trkpt lat="45.23217" lon="4.64612">
        <ele>500</ele>
        <time>2022-04-09T12:38:10Z</time>
      </trkpt>
      <trkpt lat="45.23208" lon="4.64624">
        <ele>499</ele>
        <time>2022-04-09T12:38:13Z</time>
      </trkpt>
      <trkpt lat="45.23189" lon="4.6464">
        <ele>499</ele>
        <time>2022-04-09T12:38:18Z</time>
      </trkpt>
      <trkpt lat="45.23192" lon="4.6465">
        <ele>497</ele>
        <time>2022-04-09T12:38:20Z</time>
      </trkpt>
      <trkpt lat="45.23242" lon="4.64662">
        <ele>490</ele>
        <time>2022-04-09T12:38:32Z</time>
      </trkpt>
      <trkpt lat="45.23281" lon="4.64684">
        <ele>479</ele>
        <time>2022-04-09T12:38:42Z</time>
      </trkpt>
      <trkpt lat="45.233" lon="4.64717">
        <ele>470</ele>
        <time>2022-04-09T12:38:49Z</time>
      </trkpt>
      <trkpt lat="45.23321" lon="4.64781">
        <ele>459</ele>
        <time>2022-04-09T12:39:01Z</time>
      </trkpt>
      <trkpt lat="45.23301" lon="4.64812">
        <ele>456</ele>
        <time>2022-04-09T12:39:07Z</time>
      </trkpt>
      <trkpt lat="45.23289" lon="4.64876">
        <ele>452</ele>
        <time>2022-04-09T12:39:18Z</time>
      </trkpt>
      <trkpt lat="45.2323" lon="4.64918">
        <ele>452</ele>
        <time>2022-04-09T12:39:34Z</time>
      </trkpt>
      <trkpt lat="45.23173" lon="4.65061">
        <ele>453</ele>
        <time>2022-04-09T12:40:01Z</time>
      </trkpt>
      <trkpt lat="45.23318" lon="4.65137">
        <ele>454</ele>
        <time>2022-04-09T12:40:37Z</time>
      </trkpt>
      <trkpt lat="45.23357" lon="4.65196">
        <ele>456</ele>
        <time>2022-04-09T12:40:50Z</time>
      </trkpt>
      <trkpt lat="45.23423" lon="4.65274">
        <ele>456</ele>
        <time>2022-04-09T12:41:10Z</time>
      </trkpt>
      <trkpt lat="45.23505" lon="4.6529">
        <ele>456</ele>
        <time>2022-04-09T12:41:30Z</time>
      </trkpt>
      <trkpt lat="45.23544" lon="4.65271">
        <ele>454</ele>
        <time>2022-04-09T12:41:39Z</time>
      </trkpt>
      <trkpt lat="45.23618" lon="4.65273">
        <ele>449</ele>
        <time>2022-04-09T12:41:56Z</time>
      </trkpt>
      <trkpt lat="45.23638" lon="4.65329">
        <ele>447</ele>
        <time>2022-04-09T12:42:07Z</time>
      </trkpt>
      <trkpt lat="45.2363" lon="4.65384">
        <ele>446</ele>
        <time>2022-04-09T12:42:16Z</time>
      </trkpt>
      <trkpt lat="45.23626" lon="4.65492">
        <ele>441</ele>
        <time>2022-04-09T12:42:34Z</time>
      </trkpt>
      <trkpt lat="45.23627" lon="4.65579">
        <ele>431</ele>
        <time>2022-04-09T12:42:48Z</time>
      </trkpt>
      <trkpt lat="45.23734" lon="4.65598">
        <ele>423</ele>
        <time>2022-04-09T12:43:13Z</time>
      </trkpt>
      <trkpt lat="45.2383" lon="4.65569">
        <ele>414</ele>
        <time>2022-04-09T12:43:36Z</time>
      </trkpt>
      <trkpt lat="45.23863" lon="4.65585">
        <ele>404</ele>
        <time>2022-04-09T12:43:44Z</time>
      </trkpt>
      <trkpt lat="45.23806" lon="4.65635">
        <ele>406</ele>
        <time>2022-04-09T12:44:00Z</time>
      </trkpt>
      <trkpt lat="45.23882" lon="4.65638">
        <ele>393</ele>
        <time>2022-04-09T12:44:18Z</time>
      </trkpt>
      <trkpt lat="45.23925" lon="4.65585">
        <ele>384</ele>
        <time>2022-04-09T12:44:31Z</time>
      </trkpt>
      <trkpt lat="45.23919" lon="4.65651">
        <ele>385</ele>
        <time>2022-04-09T12:44:42Z</time>
      </trkpt>
      <trkpt lat="45.23888" lon="4.6568">
        <ele>385</ele>
        <time>2022-04-09T12:44:51Z</time>
      </trkpt>
      <trkpt lat="45.23758" lon="4.65721">
        <ele>382</ele>
        <time>2022-04-09T12:45:22Z</time>
      </trkpt>
      <trkpt lat="45.23873" lon="4.65757">
        <ele>364</ele>
        <time>2022-04-09T12:45:49Z</time>
      </trkpt>
      <trkpt lat="45.23897" lon="4.65769">
        <ele>359</ele>
        <time>2022-04-09T12:45:55Z</time>
      </trkpt>
      <trkpt lat="45.23934" lon="4.65741">
        <ele>361</ele>
        <time>2022-04-09T12:46:05Z</time>
      </trkpt>
      <trkpt lat="45.23984" lon="4.65728">
        <ele>350</ele>
        <time>2022-04-09T12:46:17Z</time>
      </trkpt>
      <trkpt lat="45.24085" lon="4.65667">
        <ele>336</ele>
        <time>2022-04-09T12:46:43Z</time>
      </trkpt>
      <trkpt lat="45.24087" lon="4.6569">
        <ele>335</ele>
        <time>2022-04-09T12:46:46Z</time>
      </trkpt>
      <trkpt lat="45.2412" lon="4.65674">
        <ele>335</ele>
        <time>2022-04-09T12:46:54Z</time>
      </trkpt>
      <trkpt lat="45.24191" lon="4.65668">
        <ele>342</ele>
        <time>2022-04-09T12:47:11Z</time>
      </trkpt>
      <trkpt lat="45.24206" lon="4.6569">
        <ele>349</ele>
        <time>2022-04-09T12:47:16Z</time>
      </trkpt>
      <trkpt lat="45.24206" lon="4.65751">
        <ele>350</ele>
        <time>2022-04-09T12:47:26Z</time>
      </trkpt>
      <trkpt lat="45.24079" lon="4.65906">
        <ele>352</ele>
        <time>2022-04-09T12:48:05Z</time>
      </trkpt>
      <trkpt lat="45.23999" lon="4.6591">
        <ele>342</ele>
        <time>2022-04-09T12:48:24Z</time>
      </trkpt>
      <trkpt lat="45.23938" lon="4.65987">
        <ele>344</ele>
        <time>2022-04-09T12:48:43Z</time>
      </trkpt>
      <trkpt lat="45.23926" lon="4.66017">
        <ele>344</ele>
        <time>2022-04-09T12:48:49Z</time>
      </trkpt>
      <trkpt lat="45.23988" lon="4.66538">
        <ele>358</ele>
        <time>2022-04-09T12:50:16Z</time>
      </trkpt>
      <trkpt lat="45.23989" lon="4.66555">
        <ele>357</ele>
        <time>2022-04-09T12:50:18Z</time>
      </trkpt>
      <trkpt lat="45.23984" lon="4.66571">
        <ele>355</ele>
        <time>2022-04-09T12:50:21Z</time>
      </trkpt>
      <trkpt lat="45.23991" lon="4.66585">
        <ele>355</ele>
        <time>2022-04-09T12:50:24Z</time>
      </trkpt>
      <trkpt lat="45.23987" lon="4.66635">
        <ele>352</ele>
        <time>2022-04-09T12:50:32Z</time>
      </trkpt>
      <trkpt lat="45.24017" lon="4.66771">
        <ele>360</ele>
        <time>2022-04-09T12:50:56Z</time>
      </trkpt>
      <trkpt lat="45.2402" lon="4.66776">
        <ele>360</ele>
        <time>2022-04-09T12:50:57Z</time>
      </trkpt>
      <trkpt lat="45.2402" lon="4.66823">
        <ele>361</ele>
        <time>2022-04-09T12:51:05Z</time>
      </trkpt>
      <trkpt lat="45.24035" lon="4.66847">
        <ele>362</ele>
        <time>2022-04-09T12:51:10Z</time>
      </trkpt>
      <trkpt lat="45.24037" lon="4.66865">
        <ele>362</ele>
        <time>2022-04-09T12:51:13Z</time>
      </trkpt>
      <trkpt lat="45.24002" lon="4.66941">
        <ele>355</ele>
        <time>2022-04-09T12:51:28Z</time>
      </trkpt>
      <trkpt lat="45.24002" lon="4.66958">
        <ele>354</ele>
        <time>2022-04-09T12:51:31Z</time>
      </trkpt>
      <trkpt lat="45.23994" lon="4.66963">
        <ele>352</ele>
        <time>2022-04-09T12:51:33Z</time>
      </trkpt>
      <trkpt lat="45.23986" lon="4.66959">
        <ele>349</ele>
        <time>2022-04-09T12:51:35Z</time>
      </trkpt>
      <trkpt lat="45.23974" lon="4.66966">
        <ele>345</ele>
        <time>2022-04-09T12:51:38Z</time>
      </trkpt>
      <trkpt lat="45.2398" lon="4.66995">
        <ele>345</ele>
        <time>2022-04-09T12:51:43Z</time>
      </trkpt>
      <trkpt lat="45.2399" lon="4.67017">
        <ele>346</ele>
        <time>2022-04-09T12:51:47Z</time>
      </trkpt>
      <trkpt lat="45.2399" lon="4.67064">
        <ele>341</ele>
        <time>2022-04-09T12:51:55Z</time>
      </trkpt>
      <trkpt lat="45.23981" lon="4.67067">
        <ele>339</ele>
        <time>2022-04-09T12:51:57Z</time>
      </trkpt>
      <trkpt lat="45.23977" lon="4.67076">
        <ele>338</ele>
        <time>2022-04-09T12:51:59Z</time>
      </trkpt>
      <trkpt lat="45.23962" lon="4.67075">
        <ele>335</ele>
        <time>2022-04-09T12:52:02Z</time>
      </trkpt>
      <trkpt lat="45.23944" lon="4.67103">
        <ele>333</ele>
        <time>2022-04-09T12:52:08Z</time>
      </trkpt>
      <trkpt lat="45.23963" lon="4.67136">
        <ele>334</ele>
        <time>2022-04-09T12:52:15Z</time>
      </trkpt>
      <trkpt lat="45.23989" lon="4.67127">
        <ele>335</ele>
        <time>2022-04-09T12:52:22Z</time>
      </trkpt>
      <trkpt lat="45.24014" lon="4.67135">
        <ele>333</ele>
        <time>2022-04-09T12:52:28Z</time>
      </trkpt>
      <trkpt lat="45.24038" lon="4.67135">
        <ele>333</ele>
        <time>2022-04-09T12:52:33Z</time>
      </trkpt>
      <trkpt lat="45.24057" lon="4.6712">
        <ele>334</ele>
        <time>2022-04-09T12:52:38Z</time>
      </trkpt>
      <trkpt lat="45.24074" lon="4.67119">
        <ele>334</ele>
        <time>2022-04-09T12:52:42Z</time>
      </trkpt>
      <trkpt lat="45.2408" lon="4.67141">
        <ele>331</ele>
        <time>2022-04-09T12:52:46Z</time>
      </trkpt>
      <trkpt lat="45.24056" lon="4.67149">
        <ele>331</ele>
        <time>2022-04-09T12:52:52Z</time>
      </trkpt>
      <trkpt lat="45.23991" lon="4.67215">
        <ele>328</ele>
        <time>2022-04-09T12:53:10Z</time>
      </trkpt>
      <trkpt lat="45.24009" lon="4.67238">
        <ele>325</ele>
        <time>2022-04-09T12:53:16Z</time>
      </trkpt>
      <trkpt lat="45.23992" lon="4.67254">
        <ele>326</ele>
        <time>2022-04-09T12:53:21Z</time>
      </trkpt>
      <trkpt lat="45.23976" lon="4.67276">
        <ele>330</ele>
        <time>2022-04-09T12:53:26Z</time>
      </trkpt>
      <trkpt lat="45.23967" lon="4.67284">
        <ele>331</ele>
        <time>2022-04-09T12:53:29Z</time>
      </trkpt>
      <trkpt lat="45.23988" lon="4.67324">
        <ele>332</ele>
        <time>2022-04-09T12:53:37Z</time>
      </trkpt>
      <trkpt lat="45.23997" lon="4.67325">
        <ele>332</ele>
        <time>2022-04-09T12:53:39Z</time>
      </trkpt>
      <trkpt lat="45.24015" lon="4.67366">
        <ele>337</ele>
        <time>2022-04-09T12:53:47Z</time>
      </trkpt>
      <trkpt lat="45.2403" lon="4.67384">
        <ele>339</ele>
        <time>2022-04-09T12:53:51Z</time>
      </trkpt>
      <trkpt lat="45.24028" lon="4.67388">
        <ele>340</ele>
        <time>2022-04-09T12:53:52Z</time>
      </trkpt>
      <trkpt lat="45.24021" lon="4.67383">
        <ele>340</ele>
        <time>2022-04-09T12:53:54Z</time>
      </trkpt>
      <trkpt lat="45.24015" lon="4.67382">
        <ele>340</ele>
        <time>2022-04-09T12:53:55Z</time>
      </trkpt>
      <trkpt lat="45.24022" lon="4.67393">
        <ele>341</ele>
        <time>2022-04-09T12:53:58Z</time>
      </trkpt>
      <trkpt lat="45.24039" lon="4.67403">
        <ele>341</ele>
        <time>2022-04-09T12:54:02Z</time>
      </trkpt>
      <trkpt lat="45.24043" lon="4.67412">
        <ele>343</ele>
        <time>2022-04-09T12:54:04Z</time>
      </trkpt>
      <trkpt lat="45.24034" lon="4.6741">
        <ele>343</ele>
        <time>2022-04-09T12:54:06Z</time>
      </trkpt>
      <trkpt lat="45.2402" lon="4.67412">
        <ele>345</ele>
        <time>2022-04-09T12:54:09Z</time>
      </trkpt>
      <trkpt lat="45.24042" lon="4.67457">
        <ele>351</ele>
        <time>2022-04-09T12:54:18Z</time>
      </trkpt>
      <trkpt lat="45.24113" lon="4.67561">
        <ele>365</ele>
        <time>2022-04-09T12:54:42Z</time>
      </trkpt>
      <trkpt lat="45.24119" lon="4.67588">
        <ele>369</ele>
        <time>2022-04-09T12:54:47Z</time>
      </trkpt>
      <trkpt lat="45.24133" lon="4.67614">
        <ele>371</ele>
        <time>2022-04-09T12:54:52Z</time>
      </trkpt>
      <trkpt lat="45.24139" lon="4.67635">
        <ele>373</ele>
        <time>2022-04-09T12:54:56Z</time>
      </trkpt>
      <trkpt lat="45.24137" lon="4.67663">
        <ele>376</ele>
        <time>2022-04-09T12:55:01Z</time>
      </trkpt>
      <trkpt lat="45.24125" lon="4.67722">
        <ele>380</ele>
        <time>2022-04-09T12:55:11Z</time>
      </trkpt>
      <trkpt lat="45.24126" lon="4.67739">
        <ele>380</ele>
        <time>2022-04-09T12:55:14Z</time>
      </trkpt>
      <trkpt lat="45.2411" lon="4.67776">
        <ele>382</ele>
        <time>2022-04-09T12:55:21Z</time>
      </trkpt>
      <trkpt lat="45.24101" lon="4.67789">
        <ele>382</ele>
        <time>2022-04-09T12:55:24Z</time>
      </trkpt>
      <trkpt lat="45.241" lon="4.67797">
        <ele>383</ele>
        <time>2022-04-09T12:55:25Z</time>
      </trkpt>
      <trkpt lat="45.24076" lon="4.6786">
        <ele>382</ele>
        <time>2022-04-09T12:55:37Z</time>
      </trkpt>
      <trkpt lat="45.24067" lon="4.67893">
        <ele>382</ele>
        <time>2022-04-09T12:55:43Z</time>
      </trkpt>
      <trkpt lat="45.24059" lon="4.67942">
        <ele>380</ele>
        <time>2022-04-09T12:55:51Z</time>
      </trkpt>
      <trkpt lat="45.24059" lon="4.68055">
        <ele>379</ele>
        <time>2022-04-09T12:56:09Z</time>
      </trkpt>
      <trkpt lat="45.24051" lon="4.68135">
        <ele>379</ele>
        <time>2022-04-09T12:56:23Z</time>
      </trkpt>
      <trkpt lat="45.24023" lon="4.68319">
        <ele>385</ele>
        <time>2022-04-09T12:56:54Z</time>
      </trkpt>
      <trkpt lat="45.24008" lon="4.68401">
        <ele>385</ele>
        <time>2022-04-09T12:57:08Z</time>
      </trkpt>
      <trkpt lat="45.24" lon="4.68488">
        <ele>384</ele>
        <time>2022-04-09T12:57:22Z</time>
      </trkpt>
      <trkpt lat="45.2399" lon="4.68519">
        <ele>384</ele>
        <time>2022-04-09T12:57:28Z</time>
      </trkpt>
      <trkpt lat="45.23984" lon="4.68524">
        <ele>384</ele>
        <time>2022-04-09T12:57:29Z</time>
      </trkpt>
      <trkpt lat="45.23946" lon="4.68509">
        <ele>382</ele>
        <time>2022-04-09T12:57:38Z</time>
      </trkpt>
      <trkpt lat="45.23943" lon="4.6849">
        <ele>382</ele>
        <time>2022-04-09T12:57:42Z</time>
      </trkpt>
      <trkpt lat="45.23894" lon="4.68381">
        <ele>378</ele>
        <time>2022-04-09T12:58:03Z</time>
      </trkpt>
      <trkpt lat="45.23836" lon="4.68264">
        <ele>369</ele>
        <time>2022-04-09T12:58:26Z</time>
      </trkpt>
      <trkpt lat="45.23809" lon="4.68234">
        <ele>366</ele>
        <time>2022-04-09T12:58:34Z</time>
      </trkpt>
      <trkpt lat="45.23803" lon="4.68211">
        <ele>364</ele>
        <time>2022-04-09T12:58:39Z</time>
      </trkpt>
      <trkpt lat="45.23686" lon="4.68443">
        <ele>379</ele>
        <time>2022-04-09T12:59:25Z</time>
      </trkpt>
      <trkpt lat="45.23635" lon="4.68564">
        <ele>381</ele>
        <time>2022-04-09T12:59:49Z</time>
      </trkpt>
      <trkpt lat="45.23544" lon="4.68875">
        <ele>375</ele>
        <time>2022-04-09T13:00:44Z</time>
      </trkpt>
      <trkpt lat="45.23457" lon="4.69099">
        <ele>378</ele>
        <time>2022-04-09T13:01:26Z</time>
      </trkpt>
      <trkpt lat="45.23344" lon="4.69416">
        <ele>385</ele>
        <time>2022-04-09T13:02:25Z</time>
      </trkpt>
      <trkpt lat="45.23282" lon="4.69475">
        <ele>382</ele>
        <time>2022-04-09T13:02:42Z</time>
      </trkpt>
      <trkpt lat="45.23244" lon="4.69717">
        <ele>391</ele>
        <time>2022-04-09T13:03:23Z</time>
      </trkpt>
      <trkpt lat="45.2326" lon="4.69914">
        <ele>393</ele>
        <time>2022-04-09T13:03:55Z</time>
      </trkpt>
      <trkpt lat="45.23299" lon="4.70046">
        <ele>389</ele>
        <time>2022-04-09T13:04:19Z</time>
      </trkpt>
      <trkpt lat="45.2336" lon="4.70214">
        <ele>382</ele>
        <time>2022-04-09T13:04:50Z</time>
      </trkpt>
      <trkpt lat="45.23381" lon="4.70347">
        <ele>384</ele>
        <time>2022-04-09T13:05:12Z</time>
      </trkpt>
      <trkpt lat="45.23388" lon="4.7045">
        <ele>385</ele>
        <time>2022-04-09T13:05:29Z</time>
      </trkpt>
      <trkpt lat="45.23385" lon="4.70542">
        <ele>384</ele>
        <time>2022-04-09T13:05:45Z</time>
      </trkpt>
      <trkpt lat="45.23393" lon="4.70682">
        <ele>383</ele>
        <time>2022-04-09T13:06:08Z</time>
      </trkpt>
      <trkpt lat="45.23369" lon="4.7067">
        <ele>381</ele>
        <time>2022-04-09T13:06:14Z</time>
      </trkpt>
      <trkpt lat="45.23351" lon="4.70677">
        <ele>381</ele>
        <time>2022-04-09T13:06:18Z</time>
      </trkpt>
      <trkpt lat="45.23346" lon="4.70715">
        <ele>383</ele>
        <time>2022-04-09T13:06:24Z</time>
      </trkpt>
      <trkpt lat="45.23307" lon="4.70724">
        <ele>382</ele>
        <time>2022-04-09T13:06:34Z</time>
      </trkpt>
      <trkpt lat="45.23231" lon="4.70842">
        <ele>382</ele>
        <time>2022-04-09T13:07:00Z</time>
      </trkpt>
      <trkpt lat="45.23196" lon="4.70951">
        <ele>381</ele>
        <time>2022-04-09T13:07:20Z</time>
      </trkpt>
      <trkpt lat="45.23145" lon="4.71065">
        <ele>380</ele>
        <time>2022-04-09T13:07:42Z</time>
      </trkpt>
      <trkpt lat="45.23141" lon="4.71232">
        <ele>380</ele>
        <time>2022-04-09T13:08:09Z</time>
      </trkpt>
      <trkpt lat="45.23148" lon="4.71266">
        <ele>379</ele>
        <time>2022-04-09T13:08:15Z</time>
      </trkpt>
      <trkpt lat="45.23152" lon="4.71328">
        <ele>376</ele>
        <time>2022-04-09T13:08:25Z</time>
      </trkpt>
      <trkpt lat="45.23178" lon="4.71373">
        <ele>377</ele>
        <time>2022-04-09T13:08:35Z</time>
      </trkpt>
      <trkpt lat="45.23169" lon="4.71406">
        <ele>376</ele>
        <time>2022-04-09T13:08:41Z</time>
      </trkpt>
      <trkpt lat="45.23114" lon="4.71412">
        <ele>375</ele>
        <time>2022-04-09T13:08:54Z</time>
      </trkpt>
      <trkpt lat="45.23045" lon="4.7149">
        <ele>378</ele>
        <time>2022-04-09T13:09:14Z</time>
      </trkpt>
      <trkpt lat="45.23009" lon="4.71589">
        <ele>382</ele>
        <time>2022-04-09T13:09:32Z</time>
      </trkpt>
      <trkpt lat="45.22979" lon="4.71635">
        <ele>382</ele>
        <time>2022-04-09T13:09:43Z</time>
      </trkpt>
      <trkpt lat="45.22959" lon="4.7175">
        <ele>386</ele>
        <time>2022-04-09T13:10:02Z</time>
      </trkpt>
      <trkpt lat="45.22825" lon="4.7179">
        <ele>387</ele>
        <time>2022-04-09T13:10:34Z</time>
      </trkpt>
      <trkpt lat="45.22793" lon="4.71834">
        <ele>389</ele>
        <time>2022-04-09T13:10:45Z</time>
      </trkpt>
      <trkpt lat="45.2269" lon="4.71895">
        <ele>390</ele>
        <time>2022-04-09T13:11:11Z</time>
      </trkpt>
      <trkpt lat="45.2267" lon="4.71859">
        <ele>391</ele>
        <time>2022-04-09T13:11:18Z</time>
      </trkpt>
      <trkpt lat="45.22551" lon="4.71798">
        <ele>393</ele>
        <time>2022-04-09T13:11:48Z</time>
      </trkpt>
      <trkpt lat="45.22522" lon="4.71772">
        <ele>392</ele>
        <time>2022-04-09T13:11:56Z</time>
      </trkpt>
      <trkpt lat="45.22487" lon="4.7178">
        <ele>392</ele>
        <time>2022-04-09T13:12:04Z</time>
      </trkpt>
      <trkpt lat="45.22441" lon="4.71886">
        <ele>393</ele>
        <time>2022-04-09T13:12:25Z</time>
      </trkpt>
    </trkseg>
  </trk>
</gpx>